PORTS® Data Listing: 8516945 Kings Point, NY

CO-OPS RAW PORTS DATA

************************      PRELIMINARY DATA      ************************** 

     THIS RAW DATA HAS NOT BEEN SUBJECT TO THE NATIONAL OCEAN SERVICE'S        
     QUALITY CONTROL OR QUALITY ASSURANCE PROCEDURES AND DOES NOT MEET         
     THE CRITERIA AND STANDARDS OF OFFICIAL NATIONAL OCEAN SERVICE             
     DATA.  IT IS RELEASED FOR LIMITED PUBLIC USE AS PRELIMINARY DATA TO       
     BE USED ONLY WITH APPROPRIATE CAUTION.                                    

************************      PRELIMINARY DATA      ************************** 


       CD   -   Calendar date
       T    -   Time
       TZ   -   Timezone
       PW   -   Predicted water level (feet above MLLW)
       OW   -   Observed water level (feet above MLLW)
       WS   -   Wind speed (knots)
       WD   -   Wind direction (degrees true)
       WG   -   Wind gust (knots)
       AT   -   Air temperature (degrees farenheit)
       WT   -   Water temperature (degrees farenheit)
       AP   -   Air pressure (millibars)
       SA   -   Salinty (PSU - Practical Salinity Units)
       SG   -   Specific gravity
       RH   -   Relative humidity
       AG   -   Air gap (feet)
       VI   -   Visibility (nautical miles)

       ** NOTE **
       A variable that has its data fields filled with "9"s, indicates that
       data was not collected for that sample period.
       **********


STATION NAME: Kings Point (8516945)
****************************************************************************************************
    CD       T    TZ    PW     OW    WS   WD   WG    AT    WT    AP    SA    SG     RH    AG   VI
****************************************************************************************************
2020/01/14 10:36 EST    2.75   3.38    2  358    2  39.0  41.5 1028.4 -9.9 -9.999 -99.9 -99.99 -9.99
2020/01/14 10:42 EST    3.02   3.71    3    6    3  39.2  41.5 1028.4 -9.9 -9.999 -99.9 -99.99 -9.99
2020/01/14 10:48 EST    3.29   4.04    2   17    3  39.0  41.5 1028.2 -9.9 -9.999 -99.9 -99.99 -9.99
2020/01/14 10:54 EST    3.57   4.37    2   26    3  39.0  41.4 1028.1 -9.9 -9.999 -99.9 -99.99 -9.99
2020/01/14 11:00 EST    3.85   4.70    2   29    3  39.2  41.5 1027.9 -9.9 -9.999 -99.9 -99.99 -9.99
2020/01/14 11:06 EST    4.13   5.01    3   44    4  39.4  41.5 1027.5 -9.9 -9.999 -99.9 -99.99 -9.99
2020/01/14 11:12 EST    4.42   5.33    4   64    4  39.6  41.5 1027.1 -9.9 -9.999 -99.9 -99.99 -9.99
2020/01/14 11:18 EST    4.70   5.64    4   61    6  39.4  41.5 1026.9 -9.9 -9.999 -99.9 -99.99 -9.99
2020/01/14 11:24 EST    4.98   5.95    3   56    5  39.7  41.5 1026.8 -9.9 -9.999 -99.9 -99.99 -9.99
2020/01/14 11:30 EST    5.26   6.23    3   62    6  39.7  41.5 1026.7 -9.9 -9.999 -99.9 -99.99 -9.99
2020/01/14 11:36 EST    5.53   6.51    3   42    4  39.6  41.5 1026.5 -9.9 -9.999 -99.9 -99.99 -9.99
2020/01/14 11:42 EST    5.79   6.77    3  126    5  40.3  41.5 1026.4 -9.9 -9.999 -99.9 -99.99 -9.99
2020/01/14 11:48 EST    6.04   7.01    5   62    7  40.1  41.5 1026.1 -9.9 -9.999 -99.9 -99.99 -9.99
2020/01/14 11:54 EST    6.28   7.24    5   49    6  39.9  41.5 1026.0 -9.9 -9.999 -99.9 -99.99 -9.99
2020/01/14 12:00 EST    6.51   7.45    6   51    7  39.9  41.5 1026.0 -9.9 -9.999 -99.9 -99.99 -9.99
2020/01/14 12:06 EST    6.73   7.63    7   49    8  39.7  41.5 1025.9 -9.9 -9.999 -99.9 -99.99 -9.99
2020/01/14 12:12 EST    6.93   7.80    6   55    8  39.6  41.5 1025.5 -9.9 -9.999 -99.9 -99.99 -9.99
2020/01/14 12:18 EST    7.11   7.95    5   50    7  39.6  41.5 1025.3 -9.9 -9.999 -99.9 -99.99 -9.99
2020/01/14 12:24 EST    7.28   8.08    5   48    6  39.9  41.5 1025.2 -9.9 -9.999 -99.9 -99.99 -9.99
2020/01/14 12:30 EST    7.44   8.19    6   45    7  39.7  41.5 1025.1 -9.9 -9.999 -99.9 -99.99 -9.99
2020/01/14 12:36 EST    7.57   8.28    7   50    8  39.7  41.5 1025.0 -9.9 -9.999 -99.9 -99.99 -9.99
2020/01/14 12:42 EST    7.70   8.35    6   54    7  39.7  41.5 1024.9 -9.9 -9.999 -99.9 -99.99 -9.99
2020/01/14 12:48 EST    7.80   8.41    6   52    7  39.7  41.5 1024.9 -9.9 -9.999 -99.9 -99.99 -9.99
2020/01/14 12:54 EST    7.89   8.46    6   55    7  39.7  41.5 1024.8 -9.9 -9.999 -99.9 -99.99 -9.99
2020/01/14 13:00 EST    7.97   8.49    6   50    7  39.6  41.5 1024.8 -9.9 -9.999 -99.9 -99.99 -9.99
2020/01/14 13:06 EST    8.03   8.50    5   52    7  39.7  41.5 1024.9 -9.9 -9.999 -99.9 -99.99 -9.99
2020/01/14 13:12 EST    8.08   8.52    6   52    7  39.7  41.5 1024.7 -9.9 -9.999 -99.9 -99.99 -9.99
2020/01/14 13:18 EST    8.12   8.52    4   53    7  39.7  41.5 1024.7 -9.9 -9.999 -99.9 -99.99 -9.99
2020/01/14 13:24 EST    8.14   8.51    6   44    7  39.7  41.5 1024.6 -9.9 -9.999 -99.9 -99.99 -9.99
2020/01/14 13:30 EST    8.15   8.50    5   46    6  39.7  41.5 1024.5 -9.9 -9.999 -99.9 -99.99 -9.99
2020/01/14 13:36 EST    8.16   8.49    4   56    6  39.9  41.5 1024.1 -9.9 -9.999 -99.9 -99.99 -9.99
2020/01/14 13:42 EST    8.15   8.49    3   79    6  40.3  41.5 1023.7 -9.9 -9.999 -99.9 -99.99 -9.99
2020/01/14 13:48 EST    8.14   8.48    5   46    5  40.3  41.5 1024.0 -9.9 -9.999 -99.9 -99.99 -9.99
2020/01/14 13:54 EST    8.12   8.48    5   44    6  40.3  41.5 1024.1 -9.9 -9.999 -99.9 -99.99 -9.99
2020/01/14 14:00 EST    8.09   8.47    6   36    7  40.1  41.5 1024.2 -9.9 -9.999 -99.9 -99.99 -9.99
2020/01/14 14:06 EST    8.05   8.45    5   48    8  40.3  41.5 1023.9 -9.9 -9.999 -99.9 -99.99 -9.99
2020/01/14 14:12 EST    8.01   8.43    6   52    7  40.5  41.5 1023.9 -9.9 -9.999 -99.9 -99.99 -9.99
2020/01/14 14:18 EST    7.96   8.40    6   53    7  40.5  41.5 1023.8 -9.9 -9.999 -99.9 -99.99 -9.99
2020/01/14 14:24 EST    7.91   8.37    4   69    7  40.6  41.5 1023.3 -9.9 -9.999 -99.9 -99.99 -9.99
2020/01/14 14:30 EST    7.85   8.34    4   64    6  40.8  41.5 1023.1 -9.9 -9.999 -99.9 -99.99 -9.99
2020/01/14 14:36 EST    7.79   8.30    4   75    5  41.0  41.5 1023.1 -9.9 -9.999 -99.9 -99.99 -9.99
2020/01/14 14:42 EST    7.72   8.26    4  100    5  41.5  41.5 1022.7 -9.9 -9.999 -99.9 -99.99 -9.99
2020/01/14 14:48 EST    7.65   8.22    6   63    7  41.4  41.4 1022.9 -9.9 -9.999 -99.9 -99.99 -9.99
2020/01/14 14:54 EST    7.57   8.17    6   77    9  41.4  41.5 1022.9 -9.9 -9.999 -99.9 -99.99 -9.99
2020/01/14 15:00 EST    7.48   8.11    5   80    8  41.2  41.4 1022.9 -9.9 -9.999 -99.9 -99.99 -9.99
2020/01/14 15:06 EST    7.39   8.04    4   79    7  41.2  41.4 1022.6 -9.9 -9.999 -99.9 -99.99 -9.99
2020/01/14 15:12 EST    7.30   7.97    6   73    9  41.0  41.4 1022.8 -9.9 -9.999 -99.9 -99.99 -9.99
2020/01/14 15:18 EST    7.19   7.88    8   73   11  40.8  41.4 1022.8 -9.9 -9.999 -99.9 -99.99 -9.99
2020/01/14 15:24 EST    7.08   7.78    6   75   11  40.6  41.4 1023.1 -9.9 -9.999 -99.9 -99.99 -9.99
2020/01/14 15:30 EST    6.96   7.67    7   76   11  40.6  41.4 1022.9 -9.9 -9.999 -99.9 -99.99 -9.99
2020/01/14 15:36 EST    6.84   7.55    6   77   10  40.6  41.4 1023.0 -9.9 -9.999 -99.9 -99.99 -9.99
2020/01/14 15:42 EST    6.71   7.41    5   96    8  40.8  41.4 1022.9 -9.9 -9.999 -99.9 -99.99 -9.99
2020/01/14 15:48 EST    6.56   7.26    5   92    9  40.8  41.4 1022.9 -9.9 -9.999 -99.9 -99.99 -9.99
2020/01/14 15:54 EST    6.41   7.09    5   90    9  40.8  41.4 1022.8 -9.9 -9.999 -99.9 -99.99 -9.99
2020/01/14 16:00 EST    6.25   6.90    7   90    9  40.8  41.4 1022.7 -9.9 -9.999 -99.9 -99.99 -9.99
2020/01/14 16:06 EST    6.09   6.70    6   89   10  40.6  41.2 1022.7 -9.9 -9.999 -99.9 -99.99 -9.99
2020/01/14 16:12 EST    5.91   6.49    5   92    9  40.6  41.2 1022.7 -9.9 -9.999 -99.9 -99.99 -9.99
2020/01/14 16:18 EST    5.73   6.25    7  112    8  40.5  41.4 1022.2 -9.9 -9.999 -99.9 -99.99 -9.99
2020/01/14 16:24 EST    5.53   6.02    6  118    8  40.3  41.2 1022.1 -9.9 -9.999 -99.9 -99.99 -9.99
2020/01/14 16:30 EST    5.33   5.77    3  102    7  40.5  41.4 1022.1 -9.9 -9.999 -99.9 -99.99 -9.99
2020/01/14 16:36 EST    5.12   5.52    4  117    5  40.3  41.4 1022.1 -9.9 -9.999 -99.9 -99.99 -9.99
2020/01/14 16:42 EST    4.91   5.26    3   80    4  40.3  41.2 1022.2 -9.9 -9.999 -99.9 -99.99 -9.99
2020/01/14 16:48 EST    4.68   4.99    4  108    5  40.1  41.2 1021.9 -9.9 -9.999 -99.9 -99.99 -9.99
2020/01/14 16:54 EST    4.45   4.72    3  109    4  40.3  41.2 1022.0 -9.9 -9.999 -99.9 -99.99 -9.99
2020/01/14 17:00 EST    4.22   4.46    2  103    4  40.3  41.4 1022.2 -9.9 -9.999 -99.9 -99.99 -9.99
2020/01/14 17:06 EST    3.98   4.18    4  100    5  40.1  41.4 1022.1 -9.9 -9.999 -99.9 -99.99 -9.99
2020/01/14 17:12 EST    3.74   3.91    3  110    5  40.1  41.4 1022.0 -9.9 -9.999 -99.9 -99.99 -9.99
2020/01/14 17:18 EST    3.49   3.65    3   99    5  40.1  41.4 1022.1 -9.9 -9.999 -99.9 -99.99 -9.99
2020/01/14 17:24 EST    3.25   3.38    4  108    5  40.1  41.4 1022.0 -9.9 -9.999 -99.9 -99.99 -9.99
2020/01/14 17:30 EST    3.00   3.13    3  104    5  40.1  41.4 1022.2 -9.9 -9.999 -99.9 -99.99 -9.99
2020/01/14 17:36 EST    2.75   2.88    2  104    4  40.1  41.5 1022.2 -9.9 -9.999 -99.9 -99.99 -9.99
2020/01/14 17:42 EST    2.51   2.63    2   88    4  40.1  41.5 1022.1 -9.9 -9.999 -99.9 -99.99 -9.99
2020/01/14 17:48 EST    2.27   2.41    3  116    4  40.1  41.5 1022.2 -9.9 -9.999 -99.9 -99.99 -9.99
2020/01/14 17:54 EST    2.03   2.19    3   96    5  40.1  41.5 1022.1 -9.9 -9.999 -99.9 -99.99 -9.99
2020/01/14 18:00 EST    1.80   1.98    3  101    4  40.1  41.5 1022.0 -9.9 -9.999 -99.9 -99.99 -9.99
2020/01/14 18:06 EST    1.57   1.78    3   74    4  40.1  41.5 1022.1 -9.9 -9.999 -99.9 -99.99 -9.99
2020/01/14 18:12 EST    1.36   1.60    3   81    5  40.1  41.5 1022.1 -9.9 -9.999 -99.9 -99.99 -9.99
2020/01/14 18:18 EST    1.15   1.42    3   84    4  40.1  41.5 1021.9 -9.9 -9.999 -99.9 -99.99 -9.99
2020/01/14 18:24 EST    0.94   1.27    4   71    5  39.7  41.5 1021.9 -9.9 -9.999 -99.9 -99.99 -9.99
2020/01/14 18:30 EST    0.75   1.13    5   65    6  39.4  41.5 1022.1 -9.9 -9.999 -99.9 -99.99 -9.99
2020/01/14 18:36 EST    0.57   1.01    4   86    7  39.6  41.5 1021.9 -9.9 -9.999 -99.9 -99.99 -9.99
2020/01/14 18:42 EST    0.40   0.89    4   89    6  39.4  41.5 1021.8 -9.9 -9.999 -99.9 -99.99 -9.99
2020/01/14 18:48 EST    0.24   0.79    4   86    5  39.4  41.5 1021.8 -9.9 -9.999 -99.9 -99.99 -9.99
2020/01/14 18:54 EST    0.10   0.70    4   99    5  39.4  41.5 1021.7 -9.9 -9.999 -99.9 -99.99 -9.99
2020/01/14 19:00 EST   -0.04   0.63    4   92    5  39.4  41.5 1021.7 -9.9 -9.999 -99.9 -99.99 -9.99
2020/01/14 19:06 EST   -0.16   0.56    3   82    5  39.4  41.5 1021.8 -9.9 -9.999 -99.9 -99.99 -9.99
2020/01/14 19:12 EST   -0.27   0.52    4   89    5  39.4  41.5 1021.8 -9.9 -9.999 -99.9 -99.99 -9.99
2020/01/14 19:18 EST   -0.37   0.47    3   83    5  39.4  41.5 1021.8 -9.9 -9.999 -99.9 -99.99 -9.99
2020/01/14 19:24 EST   -0.45   0.43    3   88    5  39.6  41.5 1021.8 -9.9 -9.999 -99.9 -99.99 -9.99
2020/01/14 19:30 EST   -0.53   0.40    2   91    4  39.6  41.5 1021.7 -9.9 -9.999 -99.9 -99.99 -9.99
2020/01/14 19:36 EST   -0.59   0.39    3   63    5  39.4  41.5 1021.8 -9.9 -9.999 -99.9 -99.99 -9.99
2020/01/14 19:42 EST   -0.65   0.37    4   78    5  39.4  41.5 1021.7 -9.9 -9.999 -99.9 -99.99 -9.99
2020/01/14 19:48 EST   -0.69   0.35    3   92    5  39.6  41.5 1021.6 -9.9 -9.999 -99.9 -99.99 -9.99
2020/01/14 19:54 EST   -0.73   0.32    2   88    4  39.6  41.5 1021.6 -9.9 -9.999 -99.9 -99.99 -9.99
2020/01/14 20:00 EST   -0.76   0.30    3   81    4  39.6  41.5 1021.5 -9.9 -9.999 -99.9 -99.99 -9.99
2020/01/14 20:06 EST   -0.78   0.26    3   78    4  39.6  41.5 1021.5 -9.9 -9.999 -99.9 -99.99 -9.99
2020/01/14 20:12 EST   -0.79   0.23    3   76    4  39.6  41.5 1021.5 -9.9 -9.999 -99.9 -99.99 -9.99
2020/01/14 20:18 EST   -0.80   0.19    3   80    4  39.6  41.5 1021.5 -9.9 -9.999 -99.9 -99.99 -9.99
2020/01/14 20:24 EST   -0.80   0.15    2   78    4  39.7  41.5 1021.5 -9.9 -9.999 -99.9 -99.99 -9.99
2020/01/14 20:30 EST   -0.79   0.11    3   81    4  39.7  41.5 1021.4 -9.9 -9.999 -99.9 -99.99 -9.99
2020/01/14 20:36 EST   -0.78   0.06    2   76    4  39.7  41.5 1021.3 -9.9 -9.999 -99.9 -99.99 -9.99
2020/01/14 20:42 EST   -0.76   0.03    1   97    3  39.7  41.7 1021.2 -9.9 -9.999 -99.9 -99.99 -9.99
2020/01/14 20:48 EST   -0.74   0.00    1   74    2  39.9  41.5 1021.2 -9.9 -9.999 -99.9 -99.99 -9.99
2020/01/14 20:54 EST   -0.72  -0.02    3   51    4  39.7  41.5 1021.2 -9.9 -9.999 -99.9 -99.99 -9.99
2020/01/14 21:00 EST   -0.68  -0.04    3   62    4  39.9  41.7 1021.2 -9.9 -9.999 -99.9 -99.99 -9.99
2020/01/14 21:06 EST   -0.65  -0.06    4   58    4  39.9  41.7 1021.2 -9.9 -9.999 -99.9 -99.99 -9.99
2020/01/14 21:12 EST   -0.60  -0.05    3   62    4  39.9  41.5 1021.3 -9.9 -9.999 -99.9 -99.99 -9.99
2020/01/14 21:18 EST   -0.55  -0.02    4   51    4  40.1  41.5 1021.4 -9.9 -9.999 -99.9 -99.99 -9.99
2020/01/14 21:24 EST   -0.49   0.00    3   69    5  40.1  41.7 1021.3 -9.9 -9.999 -99.9 -99.99 -9.99
2020/01/14 21:30 EST   -0.43   0.06    3   79    4  40.3  41.7 1021.2 -9.9 -9.999 -99.9 -99.99 -9.99
2020/01/14 21:36 EST   -0.35   0.12    1   85    2  40.3  41.7 1021.0 -9.9 -9.999 -99.9 -99.99 -9.99
2020/01/14 21:42 EST   -0.26   0.20    2  100    3  40.3  41.7 1020.9 -9.9 -9.999 -99.9 -99.99 -9.99
2020/01/14 21:48 EST   -0.17   0.31    2  118    3  40.1  41.7 1020.7 -9.9 -9.999 -99.9 -99.99 -9.99
2020/01/14 21:54 EST   -0.06   0.43    2  127    3  40.3  41.7 1020.7 -9.9 -9.999 -99.9 -99.99 -9.99
2020/01/14 22:00 EST    0.06   0.56    1  114    2  40.3  41.7 1020.9 -9.9 -9.999 -99.9 -99.99 -9.99
2020/01/14 22:06 EST    0.19   0.73    2   43    3  40.1  41.7 1021.0 -9.9 -9.999 -99.9 -99.99 -9.99
2020/01/14 22:12 EST    0.34   0.91    3   42    4  40.3  41.5 1021.1 -9.9 -9.999 -99.9 -99.99 -9.99
2020/01/14 22:18 EST    0.50   1.11    7   43    8  40.3  41.5 1021.1 -9.9 -9.999 -99.9 -99.99 -9.99
2020/01/14 22:24 EST    0.67   1.31    3   72    7  40.3  41.5 1020.9 -9.9 -9.999 -99.9 -99.99 -9.99
2020/01/14 22:30 EST    0.86   1.55    3   68    4  40.1  41.5 1020.8 -9.9 -9.999 -99.9 -99.99 -9.99
2020/01/14 22:36 EST    1.06   1.79    3   59    4  40.1  41.5 1020.8 -9.9 -9.999 -99.9 -99.99 -9.99
2020/01/14 22:42 EST    1.27   2.05    3   83    4  40.3  41.5 1020.8 -9.9 -9.999 -99.9 -99.99 -9.99
2020/01/14 22:48 EST    1.50   2.32    2   79    3  40.3  41.5 1020.6 -9.9 -9.999 -99.9 -99.99 -9.99
2020/01/14 22:54 EST    1.74   2.60    1   93    2  40.3  41.5 1020.6 -9.9 -9.999 -99.9 -99.99 -9.99
2020/01/14 23:00 EST    1.99   2.88    0  133    2  40.3  41.5 1020.5 -9.9 -9.999 -99.9 -99.99 -9.99
2020/01/14 23:06 EST    2.25   3.16    0  132    1  40.3  41.5 1020.4 -9.9 -9.999 -99.9 -99.99 -9.99
2020/01/14 23:12 EST    2.52   3.44    3  199    4  40.3  41.5 1020.2 -9.9 -9.999 -99.9 -99.99 -9.99
2020/01/14 23:18 EST    2.79   3.73    4  204    5  40.3  41.5 1020.1 -9.9 -9.999 -99.9 -99.99 -9.99
2020/01/14 23:24 EST    3.08   4.01    0  220    5  40.5  41.5 1020.5 -9.9 -9.999 -99.9 -99.99 -9.99
2020/01/14 23:30 EST    3.36   4.30    0  311    1  40.3  41.5 1020.4 -9.9 -9.999 -99.9 -99.99 -9.99
2020/01/14 23:36 EST    3.65   4.57    0  307    0  40.3  41.7 1020.3 -9.9 -9.999 -99.9 -99.99 -9.99
2020/01/14 23:42 EST    3.94   4.88    1  242    2  40.3  41.7 1020.4 -9.9 -9.999 -99.9 -99.99 -9.99
2020/01/14 23:48 EST    4.22   5.17    5   11    5  40.3  41.7 1020.5 -9.9 -9.999 -99.9 -99.99 -9.99
2020/01/14 23:54 EST    4.51   5.45    3   27    4  40.3  41.7 1020.4 -9.9 -9.999 -99.9 -99.99 -9.99
2020/01/15 00:00 EST    4.78   5.73    5   35    5  40.3  41.7 1020.5 -9.9 -9.999 -99.9 -99.99 -9.99
2020/01/15 00:06 EST    5.06   6.00    7   34    7  40.3  41.7 1020.7 -9.9 -9.999 -99.9 -99.99 -9.99
2020/01/15 00:12 EST    5.32   6.26    7   43    9  40.3  41.7 1020.7 -9.9 -9.999 -99.9 -99.99 -9.99
2020/01/15 00:18 EST    5.57   6.50    6   55    7  40.3  41.7 1020.6 -9.9 -9.999 -99.9 -99.99 -9.99
2020/01/15 00:24 EST    5.81   6.74    3   80    6  40.5  41.7 1020.5 -9.9 -9.999 -99.9 -99.99 -9.99
2020/01/15 00:30 EST    6.04   6.97    3   92    5  40.5  41.7 1020.5 -9.9 -9.999 -99.9 -99.99 -9.99
2020/01/15 00:36 EST    6.26   7.16    3  113    4  40.5  41.7 1020.3 -9.9 -9.999 -99.9 -99.99 -9.99
2020/01/15 00:42 EST    6.46   7.35    3  114    5  40.5  41.7 1020.3 -9.9 -9.999 -99.9 -99.99 -9.99
2020/01/15 00:48 EST    6.65   7.52    1   87    4  40.5  41.7 1020.2 -9.9 -9.999 -99.9 -99.99 -9.99
2020/01/15 00:54 EST    6.82   7.67    1   70    3  40.5  41.7 1020.3 -9.9 -9.999 -99.9 -99.99 -9.99
2020/01/15 01:00 EST    6.98   7.80    1   35    3  40.5  41.7 1020.3 -9.9 -9.999 -99.9 -99.99 -9.99
2020/01/15 01:06 EST    7.12   7.91    2   41    3  40.5  41.7 1020.3 -9.9 -9.999 -99.9 -99.99 -9.99
2020/01/15 01:12 EST    7.25   8.00    2   16    3  40.5  41.7 1020.3 -9.9 -9.999 -99.9 -99.99 -9.99
2020/01/15 01:18 EST    7.36   8.08    2    7    2  40.3  41.7 1020.3 -9.9 -9.999 -99.9 -99.99 -9.99
2020/01/15 01:24 EST    7.45   8.14    1   12    2  40.3  41.7 1020.2 -9.9 -9.999 -99.9 -99.99 -9.99
2020/01/15 01:30 EST    7.54   8.18    0   48    1  40.3  41.7 1020.1 -9.9 -9.999 -99.9 -99.99 -9.99
2020/01/15 01:36 EST    7.61   8.22    0   37    0  40.3  41.7 1020.1 -9.9 -9.999 -99.9 -99.99 -9.99
2020/01/15 01:42 EST    7.67   8.24    0   30    0  40.3  41.7 1020.1 -9.9 -9.999 -99.9 -99.99 -9.99
2020/01/15 01:48 EST    7.71   8.25    0  278    0  40.3  41.7 1020.3 -9.9 -9.999 -99.9 -99.99 -9.99
2020/01/15 01:54 EST    7.75   8.25    0  278    0  40.3  41.7 1020.4 -9.9 -9.999 -99.9 -99.99 -9.99
2020/01/15 02:00 EST    7.77   8.24    0  322    1  40.3  41.7 1020.4 -9.9 -9.999 -99.9 -99.99 -9.99
2020/01/15 02:06 EST    7.79   8.23    2   28    2  40.5  41.7 1020.4 -9.9 -9.999 -99.9 -99.99 -9.99
2020/01/15 02:12 EST    7.79   8.22    2   36    3  40.5  41.7 1020.3 -9.9 -9.999 -99.9 -99.99 -9.99
2020/01/15 02:18 EST    7.79   8.22    2   46    2  40.5  41.5 1020.4 -9.9 -9.999 -99.9 -99.99 -9.99
2020/01/15 02:24 EST    7.78   8.23    2   29    3  40.5  41.7 1020.5 -9.9 -9.999 -99.9 -99.99 -9.99
2020/01/15 02:30 EST    7.77   8.23    1  345    2  40.5  41.7 1020.5 -9.9 -9.999 -99.9 -99.99 -9.99
2020/01/15 02:36 EST    7.75   8.24    2  329    4  40.8  41.5 1020.5 -9.9 -9.999 -99.9 -99.99 -9.99
2020/01/15 02:42 EST    7.72   8.24    7  324    8  41.7  41.7 1020.5 -9.9 -9.999 -99.9 -99.99 -9.99
2020/01/15 02:48 EST    7.69   8.23    8  329   10  41.7  41.7 1020.5 -9.9 -9.999 -99.9 -99.99 -9.99
2020/01/15 02:54 EST    7.65   8.22    9  326   11  41.7  41.7 1020.5 -9.9 -9.999 -99.9 -99.99 -9.99
2020/01/15 03:00 EST    7.61   8.20    8  322   11  41.7  41.7 1020.6 -9.9 -9.999 -99.9 -99.99 -9.99
2020/01/15 03:06 EST    7.56   8.17    8  324   10  41.7  41.5 1020.7 -9.9 -9.999 -99.9 -99.99 -9.99
2020/01/15 03:12 EST    7.50   8.14    7  332    9  41.9  41.5 1020.7 -9.9 -9.999 -99.9 -99.99 -9.99
2020/01/15 03:18 EST    7.44   8.10    4  335    6  41.7  41.5 1020.6 -9.9 -9.999 -99.9 -99.99 -9.99
2020/01/15 03:24 EST    7.37   8.06    4  318    4  41.9  41.5 1020.6 -9.9 -9.999 -99.9 -99.99 -9.99
2020/01/15 03:30 EST    7.30   8.03    4  315    4  41.9  41.5 1020.7 -9.9 -9.999 -99.9 -99.99 -9.99
2020/01/15 03:36 EST    7.22   7.98    2  295    4  41.9  41.5 1020.6 -9.9 -9.999 -99.9 -99.99 -9.99
2020/01/15 03:42 EST    7.14   7.93    2  301    3  41.7  41.5 1020.5 -9.9 -9.999 -99.9 -99.99 -9.99
2020/01/15 03:48 EST    7.04   7.85    3  305    5  41.7  41.5 1020.4 -9.9 -9.999 -99.9 -99.99 -9.99
2020/01/15 03:54 EST    6.94   7.77    4  324    6  41.7  41.4 1020.4 -9.9 -9.999 -99.9 -99.99 -9.99
2020/01/15 04:00 EST    6.83   7.68    5  334    6  41.9  41.5 1020.3 -9.9 -9.999 -99.9 -99.99 -9.99
2020/01/15 04:06 EST    6.71   7.57    4  342    5  41.9  41.5 1020.3 -9.9 -9.999 -99.9 -99.99 -9.99
2020/01/15 04:12 EST    6.59   7.44    3  355    4  41.7  41.4 1020.2 -9.9 -9.999 -99.9 -99.99 -9.99
2020/01/15 04:18 EST    6.45   7.32    3  353    4  41.7  41.4 1020.1 -9.9 -9.999 -99.9 -99.99 -9.99
2020/01/15 04:24 EST    6.31   7.20    2    7    3  41.5  41.4 1020.3 -9.9 -9.999 -99.9 -99.99 -9.99
2020/01/15 04:30 EST    6.16   7.03    4    9    5  41.9  41.4 1020.3 -9.9 -9.999 -99.9 -99.99 -9.99
2020/01/15 04:36 EST    5.99   6.86    9  350   11  42.3  41.5 1020.4 -9.9 -9.999 -99.9 -99.99 -9.99
2020/01/15 04:42 EST    5.82   6.68    8  352   10  42.3  41.5 1020.4 -9.9 -9.999 -99.9 -99.99 -9.99
2020/01/15 04:48 EST    5.64   6.48    6    3    9  41.9  41.5 1020.5 -9.9 -9.999 -99.9 -99.99 -9.99
2020/01/15 04:54 EST    5.46   6.30    7   10    9  41.9  41.5 1020.5 -9.9 -9.999 -99.9 -99.99 -9.99
2020/01/15 05:00 EST    5.26   6.06    9    3   11  42.1  41.5 1020.5 -9.9 -9.999 -99.9 -99.99 -9.99
2020/01/15 05:06 EST    5.06   5.83    7    5    9  41.9  41.5 1020.5 -9.9 -9.999 -99.9 -99.99 -9.99
2020/01/15 05:12 EST    4.85   5.59    6    5    7  41.9  41.4 1020.5 -9.9 -9.999 -99.9 -99.99 -9.99
2020/01/15 05:18 EST    4.63   5.34    7  346    8  42.3  41.5 1020.5 -9.9 -9.999 -99.9 -99.99 -9.99
2020/01/15 05:24 EST    4.41   5.07    6  343    9  42.3  41.4 1020.5 -9.9 -9.999 -99.9 -99.99 -9.99
2020/01/15 05:30 EST    4.18   4.81    8  339    9  42.4  41.4 1020.5 -9.9 -9.999 -99.9 -99.99 -9.99
2020/01/15 05:36 EST    3.95   4.54    8  339    9  42.6  41.5 1020.7 -9.9 -9.999 -99.9 -99.99 -9.99
2020/01/15 05:42 EST    3.72   4.26    8  339    9  42.8  41.4 1020.7 -9.9 -9.999 -99.9 -99.99 -9.99
2020/01/15 05:48 EST    3.48   3.99    8  346    9  42.6  41.4 1020.9 -9.9 -9.999 -99.9 -99.99 -9.99
2020/01/15 05:54 EST    3.25   3.73    8  346    8  42.6  41.4 1021.0 -9.9 -9.999 -99.9 -99.99 -9.99
2020/01/15 06:00 EST    3.01   3.46    7  354    8  42.6  41.4 1021.2 -9.9 -9.999 -99.9 -99.99 -9.99
2020/01/15 06:06 EST    2.78   3.19    8  354    9  43.0  41.4 1021.2 -9.9 -9.999 -99.9 -99.99 -9.99
2020/01/15 06:12 EST    2.55   2.94    9  356   10  43.2  41.4 1021.3 -9.9 -9.999 -99.9 -99.99 -9.99
2020/01/15 06:18 EST    2.32   2.69    9  357   11  43.2  41.4 1021.4 -9.9 -9.999 -99.9 -99.99 -9.99
2020/01/15 06:24 EST    2.09   2.45    9  353   11  43.3  41.4 1021.5 -9.9 -9.999 -99.9 -99.99 -9.99
2020/01/15 06:30 EST    1.88   2.22    9  354   11  43.3  41.4 1021.6 -9.9 -9.999 -99.9 -99.99 -9.99
2020/01/15 06:36 EST    1.67   2.01   10  350   11  43.3  41.4 1021.6 -9.9 -9.999 -99.9 -99.99 -9.99
2020/01/15 06:42 EST    1.47   1.81   10  352   13  43.3  41.4 1021.7 -9.9 -9.999 -99.9 -99.99 -9.99
2020/01/15 06:48 EST    1.28   1.62   10  352   12  43.3  41.4 1021.9 -9.9 -9.999 -99.9 -99.99 -9.99
2020/01/15 06:54 EST    1.09   1.44   11  347   13  43.3  41.4 1021.9 -9.9 -9.999 -99.9 -99.99 -9.99
2020/01/15 07:00 EST    0.92   1.25   10  352   12  43.5  41.4 1022.0 -9.9 -9.999 -99.9 -99.99 -9.99
2020/01/15 07:06 EST    0.76   1.10   10    1   12  43.5  41.4 1022.0 -9.9 -9.999 -99.9 -99.99 -9.99
2020/01/15 07:12 EST    0.61   0.97   10    1   11  43.7  41.5 1022.1 -9.9 -9.999 -99.9 -99.99 -9.99
2020/01/15 07:18 EST    0.47   0.86    9  355   11  43.3  41.5 1022.1 -9.9 -9.999 -99.9 -99.99 -9.99
2020/01/15 07:24 EST    0.34   0.76    9  347   10  43.2  41.5 1022.2 -9.9 -9.999 -99.9 -99.99 -9.99
2020/01/15 07:30 EST    0.23   0.66    9  347   10  43.3  41.4 1022.2 -9.9 -9.999 -99.9 -99.99 -9.99
2020/01/15 07:36 EST    0.13   0.60    8  349   10  43.3  41.4 1022.3 -9.9 -9.999 -99.9 -99.99 -9.99
2020/01/15 07:42 EST    0.04   0.55    7  349    8  43.2  41.4 1022.3 -9.9 -9.999 -99.9 -99.99 -9.99
2020/01/15 07:48 EST   -0.04   0.52    7  350    8  43.3  41.4 1022.3 -9.9 -9.999 -99.9 -99.99 -9.99
2020/01/15 07:54 EST   -0.11   0.50    7  348    9  43.3  41.4 1022.5 -9.9 -9.999 -99.9 -99.99 -9.99
2020/01/15 08:00 EST   -0.17   0.49    8  342   10  43.5  41.4 1022.5 -9.9 -9.999 -99.9 -99.99 -9.99
2020/01/15 08:06 EST   -0.22   0.50    8  342    9  43.7  41.4 1022.5 -9.9 -9.999 -99.9 -99.99 -9.99
2020/01/15 08:12 EST   -0.25   0.50    7  338   10  43.7  41.4 1022.5 -9.9 -9.999 -99.9 -99.99 -9.99
2020/01/15 08:18 EST   -0.28   0.51    8  341   10  44.1  41.4 1022.5 -9.9 -9.999 -99.9 -99.99 -9.99
2020/01/15 08:24 EST   -0.31   0.51    9  340   11  44.2  41.4 1022.6 -9.9 -9.999 -99.9 -99.99 -9.99
2020/01/15 08:30 EST   -0.32   0.52   10  338   13  44.6  41.4 1022.7 -9.9 -9.999 -99.9 -99.99 -9.99
2020/01/15 08:36 EST   -0.33   0.53   10  344   13  44.4  41.4 1022.8 -9.9 -9.999 -99.9 -99.99 -9.99
2020/01/15 08:42 EST   -0.33   0.54   10  343   13  44.6  41.4 1022.8 -9.9 -9.999 -99.9 -99.99 -9.99
2020/01/15 08:48 EST   -0.32   0.52   12  336   14  44.8  41.4 1022.9 -9.9 -9.999 -99.9 -99.99 -9.99
2020/01/15 08:54 EST   -0.31   0.51   12  336   16  44.8  41.4 1023.0 -9.9 -9.999 -99.9 -99.99 -9.99
2020/01/15 09:00 EST   -0.30   0.50   11  338   14  44.8  41.4 1023.0 -9.9 -9.999 -99.9 -99.99 -9.99
2020/01/15 09:06 EST   -0.28   0.49   11  340   14  44.6  41.4 1023.0 -9.9 -9.999 -99.9 -99.99 -9.99
2020/01/15 09:12 EST   -0.26   0.47   12  338   15  44.8  41.4 1023.1 -9.9 -9.999 -99.9 -99.99 -9.99
2020/01/15 09:18 EST   -0.23   0.46   13  351   15  44.8  41.4 1023.2 -9.9 -9.999 -99.9 -99.99 -9.99
2020/01/15 09:24 EST   -0.19   0.45   13  344   16  45.0  41.4 1023.1 -9.9 -9.999 -99.9 -99.99 -9.99
2020/01/15 09:30 EST   -0.16   0.46   12  336   16  45.0  41.4 1023.1 -9.9 -9.999 -99.9 -99.99 -9.99
2020/01/15 09:36 EST   -0.11   0.47   12  333   17  44.8  41.4 1023.1 -9.9 -9.999 -99.9 -99.99 -9.99
2020/01/15 09:42 EST   -0.06   0.50   11  347   16  45.0  41.4 1023.2 -9.9 -9.999 -99.9 -99.99 -9.99
2020/01/15 09:48 EST   -0.00   0.53   12  349   16  44.8  41.5 1023.2 -9.9 -9.999 -99.9 -99.99 -9.99
2020/01/15 09:54 EST    0.06   0.56   12  340   14  44.8  41.5 1023.2 -9.9 -9.999 -99.9 -99.99 -9.99
2020/01/15 10:00 EST    0.13   0.61   10  343   17  44.4  41.5 1023.2 -9.9 -9.999 -99.9 -99.99 -9.99
2020/01/15 10:06 EST    0.22   0.67   11  345   18  45.0  41.5 1023.2 -9.9 -9.999 -99.9 -99.99 -9.99
2020/01/15 10:12 EST    0.31   0.75   12    3   17  45.0  41.5 1023.0 -9.9 -9.999 -99.9 -99.99 -9.99
2020/01/15 10:18 EST    0.41   0.83   11  350   16  45.0  41.5 1023.1 -9.9 -9.999 -99.9 -99.99 -9.99
2020/01/15 10:24 EST    0.52   0.95   11    3   15  44.6  41.5 1023.1 -9.9 -9.999 -99.9 -99.99 -9.99
2020/01/15 10:30 EST    0.65   1.06   10    1   13  44.6  41.5 1023.0 -9.9 -9.999 -99.9 -99.99 -9.99
2020/01/15 10:36 EST    0.79   1.22   13  356   15  44.8  41.5 1022.9 -9.9 -9.999 -99.9 -99.99 -9.99
2020/01/15 10:42 EST    0.94   1.39    9    2   12  44.2  41.5 1022.8 -9.9 -9.999 -99.9 -99.99 -9.99
2020/01/15 10:48 EST    1.10   1.58    7    1    9  44.4  41.5 1022.8 -9.9 -9.999 -99.9 -99.99 -9.99
2020/01/15 10:54 EST    1.28   1.78   10  352   11  44.6  41.5 1022.8 -9.9 -9.999 -99.9 -99.99 -9.99
2020/01/15 11:00 EST    1.47   2.02    8    2   11  45.1  41.5 1022.7 -9.9 -9.999 -99.9 -99.99 -9.99
2020/01/15 11:06 EST    1.67   2.28    8  346   11  45.0  41.5 1022.8 -9.9 -9.999 -99.9 -99.99 -9.99
2020/01/15 11:12 EST    1.89   2.55    9    3   10  44.6  41.5 1022.5 -9.9 -9.999 -99.9 -99.99 -9.99
2020/01/15 11:18 EST    2.11   2.83    7  357   10  44.8  41.5 1022.3 -9.9 -9.999 -99.9 -99.99 -9.99
2020/01/15 11:24 EST    2.35   3.11    9    2   11  44.6  41.5 1022.3 -9.9 -9.999 -99.9 -99.99 -9.99
2020/01/15 11:30 EST    2.60   3.42    8  356   10  45.1  41.5 1022.2 -9.9 -9.999 -99.9 -99.99 -9.99
2020/01/15 11:36 EST    2.85   3.74    6  358    9  45.0  41.7 1022.2 -9.9 -9.999 -99.9 -99.99 -9.99
2020/01/15 11:42 EST    3.12   4.06    6    5    7  45.0  41.7 1022.2 -9.9 -9.999 -99.9 -99.99 -9.99
2020/01/15 11:48 EST    3.39   4.38    5    7    6  45.0  41.7 1022.1 -9.9 -9.999 -99.9 -99.99 -9.99
2020/01/15 11:54 EST    3.66   4.70    4    6    7  45.5  41.7 1022.1 -9.9 -9.999 -99.9 -99.99 -9.99
2020/01/15 12:00 EST    3.93   5.02    4    8    5  45.7  41.7 1022.0 -9.9 -9.999 -99.9 -99.99 -9.99
2020/01/15 12:06 EST    4.21   5.34    4   13    5  45.9  41.7 1021.9 -9.9 -9.999 -99.9 -99.99 -9.99
2020/01/15 12:12 EST    4.48   5.64    5  353    5  45.7  41.7 1021.9 -9.9 -9.999 -99.9 -99.99 -9.99
2020/01/15 12:18 EST    4.75   5.93    6    4    7  45.7  41.7 1021.8 -9.9 -9.999 -99.9 -99.99 -9.99
2020/01/15 12:24 EST    5.02   6.21    6  353    7  45.5  41.7 1021.8 -9.9 -9.999 -99.9 -99.99 -9.99
2020/01/15 12:30 EST    5.28   6.47    8  339    9  46.2  41.9 1021.8 -9.9 -9.999 -99.9 -99.99 -9.99
2020/01/15 12:36 EST    5.53   6.71    7  344    8  46.0  41.9 1021.8 -9.9 -9.999 -99.9 -99.99 -9.99
2020/01/15 12:42 EST    5.77   6.94    4  323    7  45.9  41.9 1021.7 -9.9 -9.999 -99.9 -99.99 -9.99
2020/01/15 12:48 EST    6.00   7.16    4  327    6  46.6  41.9 1021.7 -9.9 -9.999 -99.9 -99.99 -9.99
2020/01/15 12:54 EST    6.22   7.34    6  336    7  46.8  41.9 1021.7 -9.9 -9.999 -99.9 -99.99 -9.99
2020/01/15 13:00 EST    6.42   7.50    7  340    9  45.9  41.9 1021.7 -9.9 -9.999 -99.9 -99.99 -9.99
2020/01/15 13:06 EST    6.62   7.64    6  321    9  46.0  41.9 1021.5 -9.9 -9.999 -99.9 -99.99 -9.99
2020/01/15 13:12 EST    6.79   7.75    8  349    9  46.8  41.9 1021.4 -9.9 -9.999 -99.9 -99.99 -9.99
2020/01/15 13:18 EST    6.95   7.86    5  330    7  46.8  41.9 1021.3 -9.9 -9.999 -99.9 -99.99 -9.99
2020/01/15 13:24 EST    7.10   7.95    5  356    7  46.9  41.9 1021.3 -9.9 -9.999 -99.9 -99.99 -9.99
2020/01/15 13:30 EST    7.23   7.99    7    6    9  46.2  41.9 1021.2 -9.9 -9.999 -99.9 -99.99 -9.99
2020/01/15 13:36 EST    7.35   8.02    7  335   10  47.3  41.9 1021.3 -9.9 -9.999 -99.9 -99.99 -9.99
2020/01/15 13:42 EST    7.45   8.04    4  333    8  47.1  41.9 1021.4 -9.9 -9.999 -99.9 -99.99 -9.99
2020/01/15 13:48 EST    7.54   8.04    5  339    6  46.9  41.9 1021.3 -9.9 -9.999 -99.9 -99.99 -9.99
2020/01/15 13:54 EST    7.61   8.03   11  351   12  47.1  41.9 1021.3 -9.9 -9.999 -99.9 -99.99 -9.99
2020/01/15 14:00 EST    7.67   8.03    7  352   11  47.3  41.9 1021.3 -9.9 -9.999 -99.9 -99.99 -9.99
2020/01/15 14:06 EST    7.72   7.99   11  350   13  47.8  41.9 1021.2 -9.9 -9.999 -99.9 -99.99 -9.99
2020/01/15 14:12 EST    7.75   7.98    6  360   10  47.3  41.9 1021.0 -9.9 -9.999 -99.9 -99.99 -9.99
2020/01/15 14:18 EST    7.78   7.97    7  344    8  47.3  41.9 1021.0 -9.9 -9.999 -99.9 -99.99 -9.99
2020/01/15 14:24 EST    7.79   7.96    7  349    9  47.1  41.9 1020.9 -9.9 -9.999 -99.9 -99.99 -9.99
2020/01/15 14:30 EST    7.80   7.95    6    6    9  47.5  41.9 1020.9 -9.9 -9.999 -99.9 -99.99 -9.99
2020/01/15 14:36 EST    7.80   7.95    7    3    8  47.8  41.9 1021.0 -9.9 -9.999 -99.9 -99.99 -9.99
2020/01/15 14:42 EST    7.79   7.95    5  317    8  47.8  42.1 1021.0 -9.9 -9.999 -99.9 -99.99 -9.99
2020/01/15 14:48 EST    7.77   7.94    8  323   10  48.2  41.9 1021.1 -9.9 -9.999 -99.9 -99.99 -9.99
2020/01/15 14:54 EST    7.75   7.95    7  345   11  46.9  41.9 1021.0 -9.9 -9.999 -99.9 -99.99 -9.99
2020/01/15 15:00 EST    7.72   7.95    5  308    8  47.7  42.1 1021.0 -9.9 -9.999 -99.9 -99.99 -9.99
2020/01/15 15:06 EST    7.69   7.96    4  298    7  48.4  42.1 1021.0 -9.9 -9.999 -99.9 -99.99 -9.99
2020/01/15 15:12 EST    7.65   7.94    6  303    8  48.0  42.1 1020.9 -9.9 -9.999 -99.9 -99.99 -9.99
2020/01/15 15:18 EST    7.60   7.92    5  309    7  47.8  42.1 1020.8 -9.9 -9.999 -99.9 -99.99 -9.99
2020/01/15 15:24 EST    7.55   7.91    5  289    8  47.8  41.9 1020.8 -9.9 -9.999 -99.9 -99.99 -9.99
2020/01/15 15:30 EST    7.50   7.91    5  291    6  47.8  41.9 1020.8 -9.9 -9.999 -99.9 -99.99 -9.99
2020/01/15 15:36 EST    7.44   7.89    6  294    7  47.5  41.9 1020.8 -9.9 -9.999 -99.9 -99.99 -9.99
2020/01/15 15:42 EST    7.37   7.86    6  301    8  47.8  41.9 1020.8 -9.9 -9.999 -99.9 -99.99 -9.99
2020/01/15 15:48 EST    7.30   7.83    6  303    8  47.7  41.9 1020.7 -9.9 -9.999 -99.9 -99.99 -9.99
2020/01/15 15:54 EST    7.23   7.79    6  292    7  47.8  41.9 1020.8 -9.9 -9.999 -99.9 -99.99 -9.99
2020/01/15 16:00 EST    7.15   7.74    6  297    7  47.3  41.9 1020.7 -9.9 -9.999 -99.9 -99.99 -9.99
2020/01/15 16:06 EST    7.06   7.69    6  301    7  47.5  41.7 1020.8 -9.9 -9.999 -99.9 -99.99 -9.99
2020/01/15 16:12 EST    6.96   7.61    7  308    8  47.7  41.7 1020.8 -9.9 -9.999 -99.9 -99.99 -9.99
2020/01/15 16:18 EST    6.86   7.54    6  309    7  47.7  41.7 1020.8 -9.9 -9.999 -99.9 -99.99 -9.99
2020/01/15 16:24 EST    6.75   7.45    5  314    7  47.5  41.7 1020.7 -9.9 -9.999 -99.9 -99.99 -9.99
2020/01/15 16:30 EST    6.63   7.33    4  316    5  47.7  41.7 1020.7 -9.9 -9.999 -99.9 -99.99 -9.99
2020/01/15 16:36 EST    6.51   7.20    3  334    5  47.8  41.5 1020.5 -9.9 -9.999 -99.9 -99.99 -9.99
2020/01/15 16:42 EST    6.37   7.05    3  350    4  46.8  41.5 1020.5 -9.9 -9.999 -99.9 -99.99 -9.99
2020/01/15 16:48 EST    6.23   6.89    5  344    5  46.6  41.5 1020.5 -9.9 -9.999 -99.9 -99.99 -9.99
2020/01/15 16:54 EST    6.08   6.73    5  343    6  45.9  41.5 1020.4 -9.9 -9.999 -99.9 -99.99 -9.99
2020/01/15 17:00 EST    5.92   6.55    4  347    5  46.4  41.7 1020.4 -9.9 -9.999 -99.9 -99.99 -9.99
2020/01/15 17:06 EST    5.75   6.35    5  348    5  45.7  41.9 1020.5 -9.9 -9.999 -99.9 -99.99 -9.99
2020/01/15 17:12 EST    5.57   6.15    4    9    5  45.3  41.7 1020.5 -9.9 -9.999 -99.9 -99.99 -9.99
2020/01/15 17:18 EST    5.38   5.94    3   50    3  45.3  41.7 1020.4 -9.9 -9.999 -99.9 -99.99 -9.99
2020/01/15 17:24 EST    5.19   5.72    3   43    4  46.4  41.7 1020.4 -9.9 -9.999 -99.9 -99.99 -9.99
2020/01/15 17:30 EST    4.99   5.48    2   52    4  46.4  41.7 1020.5 -9.9 -9.999 -99.9 -99.99 -9.99
2020/01/15 17:36 EST    4.78   5.25    2   51    3  46.8  41.7 1020.6 -9.9 -9.999 -99.9 -99.99 -9.99
2020/01/15 17:42 EST    4.56   5.00    2   57    4  46.4  41.5 1020.6 -9.9 -9.999 -99.9 -99.99 -9.99
2020/01/15 17:48 EST    4.34   4.76    3   40    4  46.9  41.5 1020.8 -9.9 -9.999 -99.9 -99.99 -9.99
2020/01/15 17:54 EST    4.12   4.51    3   41    4  47.1  41.5 1020.8 -9.9 -9.999 -99.9 -99.99 -9.99
2020/01/15 18:00 EST    3.89   4.25    2   19    3  47.5  41.5 1020.7 -9.9 -9.999 -99.9 -99.99 -9.99
2020/01/15 18:06 EST    3.66   3.99    1   22    2  47.3  41.5 1020.7 -9.9 -9.999 -99.9 -99.99 -9.99
2020/01/15 18:12 EST    3.42   3.74    5  225    6  44.6  41.5 1020.8 -9.9 -9.999 -99.9 -99.99 -9.99
2020/01/15 18:18 EST    3.19   3.48    4  214    6  43.2  41.5 1021.0 -9.9 -9.999 -99.9 -99.99 -9.99
2020/01/15 18:24 EST    2.95   3.24    4  217    5  43.0  41.5 1020.9 -9.9 -9.999 -99.9 -99.99 -9.99
2020/01/15 18:30 EST    2.72   2.99    3  198    4  43.5  41.7 1021.0 -9.9 -9.999 -99.9 -99.99 -9.99
2020/01/15 18:36 EST    2.49   2.75    3  191    5  43.7  41.7 1020.9 -9.9 -9.999 -99.9 -99.99 -9.99
2020/01/15 18:42 EST    2.26   2.51    4  195    4  44.4  41.7 1020.9 -9.9 -9.999 -99.9 -99.99 -9.99
2020/01/15 18:48 EST    2.03   2.29    3  194    4  45.0  41.7 1020.9 -9.9 -9.999 -99.9 -99.99 -9.99
2020/01/15 18:54 EST    1.81   2.08    4  191    4  45.3  41.7 1020.9 -9.9 -9.999 -99.9 -99.99 -9.99
2020/01/15 19:00 EST    1.60   1.87    4  194    4  45.5  41.7 1020.8 -9.9 -9.999 -99.9 -99.99 -9.99
2020/01/15 19:06 EST    1.40   1.67    4  203    5  45.0  41.7 1020.8 -9.9 -9.999 -99.9 -99.99 -9.99
2020/01/15 19:12 EST    1.20   1.49    4  198    5  44.8  41.7 1020.8 -9.9 -9.999 -99.9 -99.99 -9.99
2020/01/15 19:18 EST    1.01   1.33    3  190    4  45.1  41.7 1020.8 -9.9 -9.999 -99.9 -99.99 -9.99
2020/01/15 19:24 EST    0.84   1.18    3  202    4  45.5  41.7 1020.8 -9.9 -9.999 -99.9 -99.99 -9.99
2020/01/15 19:30 EST    0.67   1.04    3  200    4  44.6  41.7 1020.9 -9.9 -9.999 -99.9 -99.99 -9.99
2020/01/15 19:36 EST    0.51   0.93    3  186    5  44.8  41.7 1020.8 -9.9 -9.999 -99.9 -99.99 -9.99
2020/01/15 19:42 EST    0.37   0.83    4  187    4  45.3  41.7 1020.7 -9.9 -9.999 -99.9 -99.99 -9.99
2020/01/15 19:48 EST    0.23   0.75    4  178    5  45.7  41.7 1020.6 -9.9 -9.999 -99.9 -99.99 -9.99
2020/01/15 19:54 EST    0.11   0.69    4  187    6  45.7  41.7 1020.6 -9.9 -9.999 -99.9 -99.99 -9.99
2020/01/15 20:00 EST    0.00   0.65    4  193    5  45.7  41.7 1020.6 -9.9 -9.999 -99.9 -99.99 -9.99
2020/01/15 20:06 EST   -0.10   0.62    5  193    6  45.7  41.7 1020.6 -9.9 -9.999 -99.9 -99.99 -9.99
2020/01/15 20:12 EST   -0.19   0.61    4  191    6  45.1  41.9 1020.6 -9.9 -9.999 -99.9 -99.99 -9.99
2020/01/15 20:18 EST   -0.26   0.61    3  190    5  45.3  41.7 1020.5 -9.9 -9.999 -99.9 -99.99 -9.99
2020/01/15 20:24 EST   -0.33   0.61    3  194    4  45.3  41.7 1020.4 -9.9 -9.999 -99.9 -99.99 -9.99
2020/01/15 20:30 EST   -0.39   0.63    4  184    5  45.9  41.7 1020.2 -9.9 -9.999 -99.9 -99.99 -9.99
2020/01/15 20:36 EST   -0.44   0.63    4  171    5  45.9  41.7 1020.0 -9.9 -9.999 -99.9 -99.99 -9.99
2020/01/15 20:42 EST   -0.48   0.64    4  175    5  45.7  41.7 1020.1 -9.9 -9.999 -99.9 -99.99 -9.99
2020/01/15 20:48 EST   -0.51   0.64    3  189    5  45.7  41.7 1020.2 -9.9 -9.999 -99.9 -99.99 -9.99
2020/01/15 20:54 EST   -0.53   0.63    3  199    4  43.7  41.7 1020.2 -9.9 -9.999 -99.9 -99.99 -9.99
2020/01/15 21:00 EST   -0.55   0.60    2  191    3  41.5  41.7 1020.1 -9.9 -9.999 -99.9 -99.99 -9.99
2020/01/15 21:06 EST   -0.56   0.57    3  175    3  42.3  41.7 1020.0 -9.9 -9.999 -99.9 -99.99 -9.99
2020/01/15 21:12 EST   -0.57   0.53    3  198    5  42.3  41.7 1020.0 -9.9 -9.999 -99.9 -99.99 -9.99
2020/01/15 21:18 EST   -0.57   0.48    5  200    7  41.7  41.7 1020.0 -9.9 -9.999 -99.9 -99.99 -9.99
2020/01/15 21:24 EST   -0.57   0.46    6  191    8  43.2  41.7 1019.8 -9.9 -9.999 -99.9 -99.99 -9.99
2020/01/15 21:30 EST   -0.56   0.41    6  185    8  43.3  41.7 1019.5 -9.9 -9.999 -99.9 -99.99 -9.99
2020/01/15 21:36 EST   -0.55   0.38    5  170    7  43.2  41.7 1019.2 -9.9 -9.999 -99.9 -99.99 -9.99
2020/01/15 21:42 EST   -0.53   0.34    6  189    7  43.2  41.7 1019.4 -9.9 -9.999 -99.9 -99.99 -9.99
2020/01/15 21:48 EST   -0.51   0.28    6  197    9  42.8  41.9 1019.6 -9.9 -9.999 -99.9 -99.99 -9.99
2020/01/15 21:54 EST   -0.48   0.24    6  195    8  42.6  41.9 1019.3 -9.9 -9.999 -99.9 -99.99 -9.99
2020/01/15 22:00 EST   -0.45   0.20    6  191    8  42.4  41.9 1019.2 -9.9 -9.999 -99.9 -99.99 -9.99
2020/01/15 22:06 EST   -0.41   0.16    6  203    8  42.3  41.9 1019.5 -9.9 -9.999 -99.9 -99.99 -9.99
2020/01/15 22:12 EST   -0.37   0.14    5  202    7  42.1  41.9 1019.6 -9.9 -9.999 -99.9 -99.99 -9.99
2020/01/15 22:18 EST   -0.31   0.13    7  197    7  42.4  41.9 1019.4 -9.9 -9.999 -99.9 -99.99 -9.99
2020/01/15 22:24 EST   -0.25   0.13    6  196    8  42.4  41.9 1019.3 -9.9 -9.999 -99.9 -99.99 -9.99
2020/01/15 22:30 EST   -0.18   0.15    6  194    7  42.6  41.9 1019.0 -9.9 -9.999 -99.9 -99.99 -9.99
2020/01/15 22:36 EST   -0.10   0.17    6  190    8  42.8  41.9 1018.9 -9.9 -9.999 -99.9 -99.99 -9.99
2020/01/15 22:42 EST   -0.01   0.22    6  198    8  43.0  41.9 1018.9 -9.9 -9.999 -99.9 -99.99 -9.99
2020/01/15 22:48 EST    0.10   0.29    6  201    7  43.2  41.9 1018.8 -9.9 -9.999 -99.9 -99.99 -9.99
2020/01/15 22:54 EST    0.21   0.38    7  194    9  43.3  42.1 1018.5 -9.9 -9.999 -99.9 -99.99 -9.99
2020/01/15 23:00 EST    0.34   0.48    7  195    8  43.5  42.1 1018.4 -9.9 -9.999 -99.9 -99.99 -9.99
2020/01/15 23:06 EST    0.48   0.60    8  196   10  43.5  41.9 1018.2 -9.9 -9.999 -99.9 -99.99 -9.99
2020/01/15 23:12 EST    0.64   0.76    9  197   11  43.5  41.9 1018.1 -9.9 -9.999 -99.9 -99.99 -9.99
2020/01/15 23:18 EST    0.81   0.96    9  211   11  43.5  41.9 1018.2 -9.9 -9.999 -99.9 -99.99 -9.99
2020/01/15 23:24 EST    0.99   1.17    8  207    9  43.2  41.9 1018.2 -9.9 -9.999 -99.9 -99.99 -9.99
2020/01/15 23:30 EST    1.19   1.41    7  193    8  43.5  41.7 1017.9 -9.9 -9.999 -99.9 -99.99 -9.99
2020/01/15 23:36 EST    1.40   1.66    7  191    9  43.9  41.7 1017.8 -9.9 -9.999 -99.9 -99.99 -9.99
2020/01/15 23:42 EST    1.63   1.94    8  202    9  44.2  41.7 1017.8 -9.9 -9.999 -99.9 -99.99 -9.99
2020/01/15 23:48 EST    1.86   2.24   12  217   15  44.4  41.7 1017.7 -9.9 -9.999 -99.9 -99.99 -9.99
2020/01/15 23:54 EST    2.11   2.55   12  214   14  44.4  41.7 1017.4 -9.9 -9.999 -99.9 -99.99 -9.99
2020/01/16 00:00 EST    2.36   2.87   11  206   15  44.4  41.7 1017.1 -9.9 -9.999 -99.9 -99.99 -9.99
2020/01/16 00:06 EST    2.63   3.20    8  200   14  44.4  41.7 1017.1 -9.9 -9.999 -99.9 -99.99 -9.99
2020/01/16 00:12 EST    2.90   3.54   10  206   12  44.6  41.7 1017.0 -9.9 -9.999 -99.9 -99.99 -9.99
2020/01/16 00:18 EST    3.18   3.87   14  221   15  44.6  41.7 1016.9 -9.9 -9.999 -99.9 -99.99 -9.99
2020/01/16 00:24 EST    3.46   4.21   14  222   16  45.0  41.7 1016.7 -9.9 -9.999 -99.9 -99.99 -9.99
2020/01/16 00:30 EST    3.74   4.55   13  217   17  44.6  41.7 1016.5 -9.9 -9.999 -99.9 -99.99 -9.99
2020/01/16 00:36 EST    4.02   4.87   14  216   18  44.8  41.7 1016.2 -9.9 -9.999 -99.9 -99.99 -9.99
2020/01/16 00:42 EST    4.30   5.20   13  218   16  44.6  41.9 1016.0 -9.9 -9.999 -99.9 -99.99 -9.99
2020/01/16 00:48 EST    4.58   5.53   11  216   15  44.4  41.9 1016.0 -9.9 -9.999 -99.9 -99.99 -9.99
2020/01/16 00:54 EST    4.85   5.81   12  217   14  44.6  41.9 1016.1 -9.9 -9.999 -99.9 -99.99 -9.99
2020/01/16 01:00 EST    5.11   6.10   13  217   15  44.8  41.9 1015.8 -9.9 -9.999 -99.9 -99.99 -9.99
2020/01/16 01:06 EST    5.37   6.39   15  216   16  44.8  41.9 1015.7 -9.9 -9.999 -99.9 -99.99 -9.99
2020/01/16 01:12 EST    5.61   6.65   13  220   17  44.6  41.9 1015.7 -9.9 -9.999 -99.9 -99.99 -9.99
2020/01/16 01:18 EST    5.84   6.87   15  220   18  44.8  41.9 1015.5 -9.9 -9.999 -99.9 -99.99 -9.99
2020/01/16 01:24 EST    6.07   7.10   13  219   17  44.6  41.9 1015.4 -9.9 -9.999 -99.9 -99.99 -9.99
2020/01/16 01:30 EST    6.27   7.29   15  217   17  44.6  41.9 1015.3 -9.9 -9.999 -99.9 -99.99 -9.99
2020/01/16 01:36 EST    6.47   7.48   14  217   19  44.8  41.9 1015.1 -9.9 -9.999 -99.9 -99.99 -9.99
2020/01/16 01:42 EST    6.65   7.64   13  221   16  44.6  41.9 1015.2 -9.9 -9.999 -99.9 -99.99 -9.99
2020/01/16 01:48 EST    6.81   7.78   12  220   15  44.4  41.9 1015.0 -9.9 -9.999 -99.9 -99.99 -9.99
2020/01/16 01:54 EST    6.97   7.92   16  216   18  44.6  41.9 1014.7 -9.9 -9.999 -99.9 -99.99 -9.99
2020/01/16 02:00 EST    7.10   8.03   13  214   16  44.4  41.9 1014.5 -9.9 -9.999 -99.9 -99.99 -9.99
2020/01/16 02:06 EST    7.22   8.10   12  213   14  44.4  41.9 1014.7 -9.9 -9.999 -99.9 -99.99 -9.99
2020/01/16 02:12 EST    7.33   8.17   12  212   14  44.4  41.9 1014.4 -9.9 -9.999 -99.9 -99.99 -9.99
2020/01/16 02:18 EST    7.43   8.21   12  215   15  44.4  41.9 1014.0 -9.9 -9.999 -99.9 -99.99 -9.99
2020/01/16 02:24 EST    7.51   8.27   14  212   17  44.6  41.9 1013.8 -9.9 -9.999 -99.9 -99.99 -9.99
2020/01/16 02:30 EST    7.58   8.30   14  204   17  44.6  41.9 1013.4 -9.9 -9.999 -99.9 -99.99 -9.99
2020/01/16 02:36 EST    7.63   8.30   11  207   14  44.6  41.9 1013.4 -9.9 -9.999 -99.9 -99.99 -9.99
2020/01/16 02:42 EST    7.68   8.31   11  213   15  44.8  41.9 1013.8 -9.9 -9.999 -99.9 -99.99 -9.99
2020/01/16 02:48 EST    7.72   8.31   10  214   13  44.4  41.9 1013.6 -9.9 -9.999 -99.9 -99.99 -9.99
2020/01/16 02:54 EST    7.74   8.33   15  210   16  44.4  41.9 1012.9 -9.9 -9.999 -99.9 -99.99 -9.99
2020/01/16 03:00 EST    7.76   8.32   12  212   18  44.4  41.9 1013.1 -9.9 -9.999 -99.9 -99.99 -9.99
2020/01/16 03:06 EST    7.77   8.34   11  208   16  44.6  41.9 1012.8 -9.9 -9.999 -99.9 -99.99 -9.99
2020/01/16 03:12 EST    7.78   8.36   11  209   14  44.2  41.9 1012.5 -9.9 -9.999 -99.9 -99.99 -9.99
2020/01/16 03:18 EST    7.77   8.38   13  215   16  44.6  41.9 1012.7 -9.9 -9.999 -99.9 -99.99 -9.99
2020/01/16 03:24 EST    7.77   8.39    9  229   14  44.8  41.9 1012.8 -9.9 -9.999 -99.9 -99.99 -9.99
2020/01/16 03:30 EST    7.75   8.41    9  228   13  45.0  41.9 1012.7 -9.9 -9.999 -99.9 -99.99 -9.99
2020/01/16 03:36 EST    7.73   8.44   10  224   12  45.0  41.9 1012.6 -9.9 -9.999 -99.9 -99.99 -9.99
2020/01/16 03:42 EST    7.70   8.46   10  221   12  44.8  41.9 1012.2 -9.9 -9.999 -99.9 -99.99 -9.99
2020/01/16 03:48 EST    7.67   8.48   12  216   17  44.6  41.9 1011.9 -9.9 -9.999 -99.9 -99.99 -9.99
2020/01/16 03:54 EST    7.64   8.48   12  218   15  44.8  41.9 1011.7 -9.9 -9.999 -99.9 -99.99 -9.99
2020/01/16 04:00 EST    7.59   8.48   13  219   15  44.8  41.9 1011.7 -9.9 -9.999 -99.9 -99.99 -9.99
2020/01/16 04:06 EST    7.55   8.47   12  221   14  45.0  41.9 1011.6 -9.9 -9.999 -99.9 -99.99 -9.99
2020/01/16 04:12 EST    7.49   8.47   11  225   14  45.1  41.9 1011.6 -9.9 -9.999 -99.9 -99.99 -9.99
2020/01/16 04:18 EST    7.43   8.45   10  225   13  45.0  41.9 1011.5 -9.9 -9.999 -99.9 -99.99 -9.99
2020/01/16 04:24 EST    7.37   8.42    8  229   12  45.1  41.9 1011.5 -9.9 -9.999 -99.9 -99.99 -9.99
2020/01/16 04:30 EST    7.30   8.39    9  234   13  45.1  41.7 1011.4 -9.9 -9.999 -99.9 -99.99 -9.99
2020/01/16 04:36 EST    7.22   8.34    8  231   11  45.3  41.7 1011.3 -9.9 -9.999 -99.9 -99.99 -9.99
2020/01/16 04:42 EST    7.13   8.29    9  235   11  45.3  41.7 1011.4 -9.9 -9.999 -99.9 -99.99 -9.99
2020/01/16 04:48 EST    7.03   8.24    8  249   11  45.5  41.7 1011.6 -9.9 -9.999 -99.9 -99.99 -9.99
2020/01/16 04:54 EST    6.93   8.15    6  261   10  45.1  41.5 1011.8 -9.9 -9.999 -99.9 -99.99 -9.99
2020/01/16 05:00 EST    6.82   8.03    8  254    9  45.3  41.5 1011.6 -9.9 -9.999 -99.9 -99.99 -9.99
2020/01/16 05:06 EST    6.70   7.91    7  245    9  45.0  41.5 1011.4 -9.9 -9.999 -99.9 -99.99 -9.99
2020/01/16 05:12 EST    6.57   7.76    8  249   10  45.3  41.5 1011.3 -9.9 -9.999 -99.9 -99.99 -9.99
2020/01/16 05:18 EST    6.43   7.61   10  246   11  45.5  41.5 1011.0 -9.9 -9.999 -99.9 -99.99 -9.99
2020/01/16 05:24 EST    6.28   7.43   10  245   11  45.5  41.5 1010.7 -9.9 -9.999 -99.9 -99.99 -9.99
2020/01/16 05:30 EST    6.13   7.27    8  256   11  45.7  41.5 1010.6 -9.9 -9.999 -99.9 -99.99 -9.99
2020/01/16 05:36 EST    5.96   7.06   10  272   13  45.7  41.4 1010.8 -9.9 -9.999 -99.9 -99.99 -9.99
2020/01/16 05:42 EST    5.79   6.89   10  277   12  45.7  41.5 1010.7 -9.9 -9.999 -99.9 -99.99 -9.99
2020/01/16 05:48 EST    5.60   6.68   11  277   13  45.9  41.7 1010.6 -9.9 -9.999 -99.9 -99.99 -9.99
2020/01/16 05:54 EST    5.41   6.45   11  266   13  45.7  41.7 1010.6 -9.9 -9.999 -99.9 -99.99 -9.99
2020/01/16 06:00 EST    5.21   6.23   10  271   12  45.5  41.7 1010.5 -9.9 -9.999 -99.9 -99.99 -9.99
2020/01/16 06:06 EST    5.01   5.98   11  262   13  45.9  41.7 1010.4 -9.9 -9.999 -99.9 -99.99 -9.99
2020/01/16 06:12 EST    4.80   5.76   12  278   14  45.9  41.7 1010.6 -9.9 -9.999 -99.9 -99.99 -9.99
2020/01/16 06:18 EST    4.58   5.51   11  281   14  45.9  41.7 1010.4 -9.9 -9.999 -99.9 -99.99 -9.99
2020/01/16 06:24 EST    4.36   5.26   10  273   15  45.7  41.7 1010.5 -9.9 -9.999 -99.9 -99.99 -9.99
2020/01/16 06:30 EST    4.13   5.00   10  277   13  45.7  41.7 1010.5 -9.9 -9.999 -99.9 -99.99 -9.99
2020/01/16 06:36 EST    3.91   4.74    9  277   11  45.7  41.7 1010.6 -9.9 -9.999 -99.9 -99.99 -9.99
2020/01/16 06:42 EST    3.68   4.50   10  273   13  46.0  41.7 1010.6 -9.9 -9.999 -99.9 -99.99 -9.99
2020/01/16 06:48 EST    3.45   4.24    9  295   12  45.9  41.7 1010.7 -9.9 -9.999 -99.9 -99.99 -9.99
2020/01/16 06:54 EST    3.22   3.99    9  320   11  45.9  41.7 1010.8 -9.9 -9.999 -99.9 -99.99 -9.99
2020/01/16 07:00 EST    2.99   3.75   12  301   15  46.2  41.7 1010.6 -9.9 -9.999 -99.9 -99.99 -9.99
2020/01/16 07:06 EST    2.76   3.53   10  305   16  45.9  41.9 1010.8 -9.9 -9.999 -99.9 -99.99 -9.99
2020/01/16 07:12 EST    2.54   3.30   11  313   14  45.7  41.7 1010.9 -9.9 -9.999 -99.9 -99.99 -9.99
2020/01/16 07:18 EST    2.33   3.09   12  308   16  45.7  41.9 1010.9 -9.9 -9.999 -99.9 -99.99 -9.99
2020/01/16 07:24 EST    2.12   2.88    9  313   13  45.9  41.9 1010.9 -9.9 -9.999 -99.9 -99.99 -9.99
2020/01/16 07:30 EST    1.92   2.69   12  314   14  46.0  41.7 1010.9 -9.9 -9.999 -99.9 -99.99 -9.99
2020/01/16 07:36 EST    1.72   2.50   13  315   18  46.2  41.7 1010.8 -9.9 -9.999 -99.9 -99.99 -9.99
2020/01/16 07:42 EST    1.53   2.32   11  317   15  45.9  41.7 1010.9 -9.9 -9.999 -99.9 -99.99 -9.99
2020/01/16 07:48 EST    1.36   2.11   12  314   14  46.2  41.7 1010.8 -9.9 -9.999 -99.9 -99.99 -9.99
2020/01/16 07:54 EST    1.19   1.96   11  308   14  46.2  41.9 1010.7 -9.9 -9.999 -99.9 -99.99 -9.99
2020/01/16 08:00 EST    1.03   1.80   11  315   14  46.6  41.7 1010.7 -9.9 -9.999 -99.9 -99.99 -9.99
2020/01/16 08:06 EST    0.89   1.66   11  312   16  46.4  41.7 1010.7 -9.9 -9.999 -99.9 -99.99 -9.99
2020/01/16 08:12 EST    0.75   1.53    9  299   13  46.4  41.7 1010.8 -9.9 -9.999 -99.9 -99.99 -9.99
2020/01/16 08:18 EST    0.63   1.42   13  307   15  46.9  41.9 1010.8 -9.9 -9.999 -99.9 -99.99 -9.99
2020/01/16 08:24 EST    0.51   1.31   15  306   18  46.9  41.7 1010.8 -9.9 -9.999 -99.9 -99.99 -9.99
2020/01/16 08:30 EST    0.41   1.24   17  308   20  47.1  41.7 1010.8 -9.9 -9.999 -99.9 -99.99 -9.99
2020/01/16 08:36 EST    0.32   1.17   15  307   19  47.3  41.9 1010.9 -9.9 -9.999 -99.9 -99.99 -9.99
2020/01/16 08:42 EST    0.24   1.14   15  311   19  47.3  41.9 1011.0 -9.9 -9.999 -99.9 -99.99 -9.99
2020/01/16 08:48 EST    0.16   1.08   15  318   20  47.3  41.9 1011.2 -9.9 -9.999 -99.9 -99.99 -9.99
2020/01/16 08:54 EST    0.10   1.07   18  318   21  47.7  41.9 1011.4 -9.9 -9.999 -99.9 -99.99 -9.99
2020/01/16 09:00 EST    0.05   1.04   16  340   21  47.1  41.9 1011.8 -9.9 -9.999 -99.9 -99.99 -9.99
2020/01/16 09:06 EST    0.00   1.01   22  343   29  46.9  41.9 1011.9 -9.9 -9.999 -99.9 -99.99 -9.99
2020/01/16 09:12 EST   -0.04   1.01   20  351   24  47.3  41.9 1012.1 -9.9 -9.999 -99.9 -99.99 -9.99
2020/01/16 09:18 EST   -0.07   0.97   21  359   25  46.9  41.9 1012.2 -9.9 -9.999 -99.9 -99.99 -9.99
2020/01/16 09:24 EST   -0.10   0.97   22    7   28  46.2  41.9 1012.4 -9.9 -9.999 -99.9 -99.99 -9.99
2020/01/16 09:30 EST   -0.12   1.00   19    7   27  46.2  41.9 1012.5 -9.9 -9.999 -99.9 -99.99 -9.99
2020/01/16 09:36 EST   -0.13   0.94   21    1   28  46.2  41.9 1012.7 -9.9 -9.999 -99.9 -99.99 -9.99
2020/01/16 09:42 EST   -0.14   0.94   20  353   28  46.8  42.1 1012.8 -9.9 -9.999 -99.9 -99.99 -9.99
2020/01/16 09:48 EST   -0.15   0.90   24  341   34  46.9  42.1 1012.9 -9.9 -9.999 -99.9 -99.99 -9.99
2020/01/16 09:54 EST   -0.15   0.88   27  355   36  46.8  42.1 1013.0 -9.9 -9.999 -99.9 -99.99 -9.99
2020/01/16 10:00 EST   -0.15   0.84   26  359   36  46.8  42.1 1013.2 -9.9 -9.999 -99.9 -99.99 -9.99
2020/01/16 10:06 EST   -0.15   0.84   27  351   34  46.8  42.1 1013.3 -9.9 -9.999 -99.9 -99.99 -9.99
2020/01/16 10:12 EST   -0.14   0.83   31  345   42  46.8  42.1 1013.2 -9.9 -9.999 -99.9 -99.99 -9.99
2020/01/16 10:18 EST   -0.12   0.76   28  347   39  46.9  42.1 1013.2 -9.9 -9.999 -99.9 -99.99 -9.99
2020/01/16 10:24 EST   -0.10   0.71   23  356   31  46.4  42.1 1013.2 -9.9 -9.999 -99.9 -99.99 -9.99
2020/01/16 10:30 EST   -0.08   0.69   19  346   24  46.6  42.1 1013.1 -9.9 -9.999 -99.9 -99.99 -9.99
2020/01/16 10:36 EST   -0.05   0.64   17  344   25  46.6  42.3 1013.1 -9.9 -9.999 -99.9 -99.99 -9.99
2020/01/16 10:42 EST   -0.01   0.59   22  359   30  46.0  42.3 1012.9 -9.9 -9.999 -99.9 -99.99 -9.99
2020/01/16 10:48 EST    0.03   0.55   24  356   34  46.0  42.3 1013.1 -9.9 -9.999 -99.9 -99.99 -9.99
2020/01/16 10:54 EST    0.09   0.53   29  353   35  46.0  42.3 1013.0 -9.9 -9.999 -99.9 -99.99 -9.99
2020/01/16 11:00 EST    0.15   0.47   32  343   41  45.7  42.3 1012.9 -9.9 -9.999 -99.9 -99.99 -9.99
2020/01/16 11:06 EST    0.22   0.44   30  348   43  45.7  42.3 1012.8 -9.9 -9.999 -99.9 -99.99 -9.99
2020/01/16 11:12 EST    0.31   0.57   27  348   39  45.7  42.3 1012.9 -9.9 -9.999 -99.9 -99.99 -9.99
2020/01/16 11:18 EST    0.40   0.59   26  344   36  45.7  42.3 1012.9 -9.9 -9.999 -99.9 -99.99 -9.99
2020/01/16 11:24 EST    0.51   0.69   33  345   41  45.7  42.3 1012.7 -9.9 -9.999 -99.9 -99.99 -9.99
2020/01/16 11:30 EST    0.63   0.76   28  356   37  45.9  42.3 1012.7 -9.9 -9.999 -99.9 -99.99 -9.99
2020/01/16 11:36 EST    0.77   0.85   29  346   34  45.9  42.3 1012.5 -9.9 -9.999 -99.9 -99.99 -9.99
2020/01/16 11:42 EST    0.92   0.97   23  353   35  45.7  42.3 1012.5 -9.9 -9.999 -99.9 -99.99 -9.99
2020/01/16 11:48 EST    1.08   1.14   25  350   31  46.0  42.3 1012.4 -9.9 -9.999 -99.9 -99.99 -9.99
2020/01/16 11:54 EST    1.26   1.34   31  351   36  45.9  42.3 1012.4 -9.9 -9.999 -99.9 -99.99 -9.99
2020/01/16 12:00 EST    1.45   1.54   24    1   39  45.7  42.3 1012.3 -9.9 -9.999 -99.9 -99.99 -9.99
2020/01/16 12:06 EST    1.65   1.76   27  351   34  45.9  41.9 1012.2 -9.9 -9.999 -99.9 -99.99 -9.99
2020/01/16 12:12 EST    1.86   2.01   25  354   32  46.4  41.9 1012.2 -9.9 -9.999 -99.9 -99.99 -9.99
2020/01/16 12:18 EST    2.09   2.32   30  338   36  46.2  42.1 1012.1 -9.9 -9.999 -99.9 -99.99 -9.99
2020/01/16 12:24 EST    2.32   2.57   27  341   34  46.4  42.3 1012.2 -9.9 -9.999 -99.9 -99.99 -9.99
2020/01/16 12:30 EST    2.57   2.88   29    1   38  45.7  42.1 1012.4 -9.9 -9.999 -99.9 -99.99 -9.99
2020/01/16 12:36 EST    2.82   3.14   31    0   43  45.1  42.1 1012.5 -9.9 -9.999 -99.9 -99.99 -9.99
2020/01/16 12:42 EST    3.08   3.47   25  356   41  44.8  42.3 1012.4 -9.9 -9.999 -99.9 -99.99 -9.99
2020/01/16 12:48 EST    3.34   3.73   24  357   30  44.6  42.3 1012.3 -9.9 -9.999 -99.9 -99.99 -9.99
2020/01/16 12:54 EST    3.60   4.04   26  347   37  44.8  42.3 1012.2 -9.9 -9.999 -99.9 -99.99 -9.99
2020/01/16 13:00 EST    3.86   4.35   23  352   33  44.8  42.1 1012.4 -9.9 -9.999 -99.9 -99.99 -9.99
2020/01/16 13:06 EST    4.13   4.62   25  352   35  44.8  42.1 1012.4 -9.9 -9.999 -99.9 -99.99 -9.99
2020/01/16 13:12 EST    4.38   4.86   25  357   33  45.0  42.1 1012.2 -9.9 -9.999 -99.9 -99.99 -9.99
2020/01/16 13:18 EST    4.64   5.12   21  359   28  45.0  42.1 1012.3 -9.9 -9.999 -99.9 -99.99 -9.99
2020/01/16 13:24 EST    4.89   5.39   21    4   27  44.8  42.1 1012.2 -9.9 -9.999 -99.9 -99.99 -9.99
2020/01/16 13:30 EST    5.13   5.61   23    6   30  44.2  42.1 1012.4 -9.9 -9.999 -99.9 -99.99 -9.99
2020/01/16 13:36 EST    5.36   5.78   22    7   28  43.9  42.3 1012.7 -9.9 -9.999 -99.9 -99.99 -9.99
2020/01/16 13:42 EST    5.58   5.91   29  358   37  43.2  42.3 1013.1 -9.9 -9.999 -99.9 -99.99 -9.99
2020/01/16 13:48 EST    5.79   6.02   27  340   32  41.5  42.3 1013.3 -9.9 -9.999 -99.9 -99.99 -9.99
2020/01/16 13:54 EST    5.98   6.10   24  326   30  41.7  42.1 1013.2 -9.9 -9.999 -99.9 -99.99 -9.99
2020/01/16 14:00 EST    6.17   6.15   20  341   29  41.7  42.1 1013.4 -9.9 -9.999 -99.9 -99.99 -9.99
2020/01/16 14:06 EST    6.34   6.18   16  341   23  41.9  42.1 1013.5 -9.9 -9.999 -99.9 -99.99 -9.99
2020/01/16 14:12 EST    6.49   6.28   20  352   26  42.3  42.3 1013.6 -9.9 -9.999 -99.9 -99.99 -9.99
2020/01/16 14:18 EST    6.63   6.34   24    0   31  41.9  42.3 1013.7 -9.9 -9.999 -99.9 -99.99 -9.99
2020/01/16 14:24 EST    6.76   6.41   28    4   39  39.0  42.3 1014.3 -9.9 -9.999 -99.9 -99.99 -9.99
2020/01/16 14:30 EST    6.88   6.46   30  344   38  39.7  42.3 1014.3 -9.9 -9.999 -99.9 -99.99 -9.99
2020/01/16 14:36 EST    6.98   6.52   26  346   37  40.1  42.3 1014.2 -9.9 -9.999 -99.9 -99.99 -9.99
2020/01/16 14:42 EST    7.06   6.57   22  347   31  40.1  42.3 1014.3 -9.9 -9.999 -99.9 -99.99 -9.99
2020/01/16 14:48 EST    7.14   6.62   24  341   31  40.1  42.3 1014.0 -9.9 -9.999 -99.9 -99.99 -9.99
2020/01/16 14:54 EST    7.20   6.68   22  342   28  39.9  42.3 1014.0 -9.9 -9.999 -99.9 -99.99 -9.99
2020/01/16 15:00 EST    7.25   6.69   24  343   28  40.1  42.3 1014.3 -9.9 -9.999 -99.9 -99.99 -9.99
2020/01/16 15:06 EST    7.29   6.72   20  345   27  40.8  42.3 1014.5 -9.9 -9.999 -99.9 -99.99 -9.99
2020/01/16 15:12 EST    7.32   6.80   19  356   27  41.2  42.3 1014.5 -9.9 -9.999 -99.9 -99.99 -9.99
2020/01/16 15:18 EST    7.35   6.88   19    2   27  41.5  42.3 1014.5 -9.9 -9.999 -99.9 -99.99 -9.99
2020/01/16 15:24 EST    7.36 -99.99 -999 -999 -999 -99.9 -99.9 -999.9 -9.9 -9.999 -99.9 -99.99 -9.99
2020/01/16 15:30 EST    7.37 -99.99 -999 -999 -999 -99.9 -99.9 -999.9 -9.9 -9.999 -99.9 -99.99 -9.99
2020/01/16 15:36 EST    7.37 -99.99 -999 -999 -999 -99.9 -99.9 -999.9 -9.9 -9.999 -99.9 -99.99 -9.99
2020/01/16 15:42 EST    7.37   6.94   22  353   26  41.7  42.3 1014.8 -9.9 -9.999 -99.9 -99.99 -9.99
2020/01/16 15:48 EST    7.36   6.91   26  345   33  41.7  42.3 1015.1 -9.9 -9.999 -99.9 -99.99 -9.99
2020/01/16 15:54 EST    7.34   6.85   24  357   32  41.5  42.1 1015.3 -9.9 -9.999 -99.9 -99.99 -9.99
2020/01/16 16:00 EST    7.32   6.80   24  350   30  41.2  42.1 1015.4 -9.9 -9.999 -99.9 -99.99 -9.99
2020/01/16 16:06 EST    7.29   6.69   23    3   30  41.4  42.1 1015.6 -9.9 -9.999 -99.9 -99.99 -9.99
2020/01/16 16:12 EST    7.26   6.59   32    5   38  41.2  42.1 1015.9 -9.9 -9.999 -99.9 -99.99 -9.99
2020/01/16 16:18 EST    7.23   6.45   26  360   38  40.5  42.1 1015.9 -9.9 -9.999 -99.9 -99.99 -9.99
2020/01/16 16:24 EST    7.19   6.32   24    3   31  40.5  42.1 1016.1 -9.9 -9.999 -99.9 -99.99 -9.99
2020/01/16 16:30 EST    7.14   6.20   23    5   29  40.3  42.1 1016.3 -9.9 -9.999 -99.9 -99.99 -9.99
2020/01/16 16:36 EST    7.09   6.10   26    4   32  40.1  42.1 1016.6 -9.9 -9.999 -99.9 -99.99 -9.99
2020/01/16 16:42 EST    7.04   5.97   18    3   27  40.1  42.1 1016.8 -9.9 -9.999 -99.9 -99.99 -9.99
2020/01/16 16:48 EST    6.98   5.86   23    2   26  40.1  42.1 1016.8 -9.9 -9.999 -99.9 -99.99 -9.99
2020/01/16 16:54 EST    6.91   5.73   21    6   28  40.3  41.9 1017.0 -9.9 -9.999 -99.9 -99.99 -9.99
2020/01/16 17:00 EST    6.83   5.57   24  352   32  40.1  41.9 1017.1 -9.9 -9.999 -99.9 -99.99 -9.99
2020/01/16 17:06 EST    6.75   5.41   19  346   28  40.1  41.9 1017.3 -9.9 -9.999 -99.9 -99.99 -9.99
2020/01/16 17:12 EST    6.67   5.25   21  348   25  40.1  41.9 1017.4 -9.9 -9.999 -99.9 -99.99 -9.99
2020/01/16 17:18 EST    6.57   5.09   19  344   25  40.1  41.9 1017.5 -9.9 -9.999 -99.9 -99.99 -9.99
2020/01/16 17:24 EST    6.47   4.93   19  349   27  39.9  41.9 1017.7 -9.9 -9.999 -99.9 -99.99 -9.99
2020/01/16 17:30 EST    6.35   4.78   19  346   24  39.9  41.9 1017.8 -9.9 -9.999 -99.9 -99.99 -9.99
2020/01/16 17:36 EST    6.23   4.65   17  355   23  39.9  41.9 1017.9 -9.9 -9.999 -99.9 -99.99 -9.99
2020/01/16 17:42 EST    6.10   4.52   20  352   28  39.7  41.9 1018.0 -9.9 -9.999 -99.9 -99.99 -9.99
2020/01/16 17:48 EST    5.96   4.38   23    1   31  39.9  41.9 1018.2 -9.9 -9.999 -99.9 -99.99 -9.99
2020/01/16 17:54 EST    5.82   4.21   23    0   33  39.7  41.9 1018.4 -9.9 -9.999 -99.9 -99.99 -9.99
2020/01/16 18:00 EST    5.66   4.10   17    0   30  39.7  41.9 1018.6 -9.9 -9.999 -99.9 -99.99 -9.99
2020/01/16 18:06 EST    5.49   3.93   21    2   25  39.7  41.9 1018.6 -9.9 -9.999 -99.9 -99.99 -9.99
2020/01/16 18:12 EST    5.32   3.78   22    4   31  39.4  41.9 1018.7 -9.9 -9.999 -99.9 -99.99 -9.99
2020/01/16 18:18 EST    5.14   3.60   23    4   31  39.0  41.9 1018.8 -9.9 -9.999 -99.9 -99.99 -9.99
2020/01/16 18:24 EST    4.95   3.41   20   12   25  38.5  41.7 1019.0 -9.9 -9.999 -99.9 -99.99 -9.99
2020/01/16 18:30 EST    4.75   3.25   22    6   28  38.5  41.9 1019.0 -9.9 -9.999 -99.9 -99.99 -9.99
2020/01/16 18:36 EST    4.55   3.09   25    6   29  38.5  41.9 1019.1 -9.9 -9.999 -99.9 -99.99 -9.99
2020/01/16 18:42 EST    4.35   2.90   27  350   34  38.3  41.9 1019.0 -9.9 -9.999 -99.9 -99.99 -9.99
2020/01/16 18:48 EST    4.13   2.75   26  356   33  38.3  41.9 1019.0 -9.9 -9.999 -99.9 -99.99 -9.99
2020/01/16 18:54 EST    3.92   2.61   27  357   36  38.3  41.7 1019.0 -9.9 -9.999 -99.9 -99.99 -9.99
2020/01/16 19:00 EST    3.70   2.46   29  356   36  38.3  41.7 1019.1 -9.9 -9.999 -99.9 -99.99 -9.99
2020/01/16 19:06 EST    3.48   2.28   27  354   37  38.1  41.7 1019.1 -9.9 -9.999 -99.9 -99.99 -9.99
2020/01/16 19:12 EST    3.25   2.11   29  352   42  38.1  41.7 1019.2 -9.9 -9.999 -99.9 -99.99 -9.99
2020/01/16 19:18 EST    3.03   1.96   30  356   37  37.9  41.7 1019.2 -9.9 -9.999 -99.9 -99.99 -9.99
2020/01/16 19:24 EST    2.81   1.80   26  354   34  37.9  41.7 1019.2 -9.9 -9.999 -99.9 -99.99 -9.99
2020/01/16 19:30 EST    2.59   1.62   25  351   34  37.9  41.7 1019.3 -9.9 -9.999 -99.9 -99.99 -9.99
2020/01/16 19:36 EST    2.38   1.47   28  350   34  37.9  41.7 1019.4 -9.9 -9.999 -99.9 -99.99 -9.99
2020/01/16 19:42 EST    2.17   1.35   26    0   33  37.8  41.5 1019.4 -9.9 -9.999 -99.9 -99.99 -9.99
2020/01/16 19:48 EST    1.96   1.19   23  351   28  37.9  41.5 1019.5 -9.9 -9.999 -99.9 -99.99 -9.99
2020/01/16 19:54 EST    1.76   1.06   28  351   37  37.8  41.5 1019.4 -9.9 -9.999 -99.9 -99.99 -9.99
2020/01/16 20:00 EST    1.57   0.92   28  353   38  37.8  41.5 1019.4 -9.9 -9.999 -99.9 -99.99 -9.99
2020/01/16 20:06 EST    1.39   0.78   26  356   32  37.6  41.5 1019.5 -9.9 -9.999 -99.9 -99.99 -9.99
2020/01/16 20:12 EST    1.21   0.63   22  359   32  37.6  41.5 1019.6 -9.9 -9.999 -99.9 -99.99 -9.99
2020/01/16 20:18 EST    1.05   0.49   20  355   26  37.4  41.5 1019.6 -9.9 -9.999 -99.9 -99.99 -9.99
2020/01/16 20:24 EST    0.89   0.30   25    1   31  37.2  41.5 1019.8 -9.9 -9.999 -99.9 -99.99 -9.99
2020/01/16 20:30 EST    0.75   0.11   20  358   33  37.4  41.7 1020.0 -9.9 -9.999 -99.9 -99.99 -9.99
2020/01/16 20:36 EST    0.62  -0.07   27  357   32  37.2  41.5 1020.1 -9.9 -9.999 -99.9 -99.99 -9.99
2020/01/16 20:42 EST    0.49  -0.26   21    4   27  37.0  41.7 1020.2 -9.9 -9.999 -99.9 -99.99 -9.99
2020/01/16 20:48 EST    0.38  -0.41   19    3   25  37.0  41.5 1020.3 -9.9 -9.999 -99.9 -99.99 -9.99
2020/01/16 20:54 EST    0.28  -0.55   19    7   26  36.9  41.5 1020.4 -9.9 -9.999 -99.9 -99.99 -9.99
2020/01/16 21:00 EST    0.18  -0.67   17    6   25  36.9  41.5 1020.6 -9.9 -9.999 -99.9 -99.99 -9.99
2020/01/16 21:06 EST    0.10  -0.74   18    5   23  36.7  41.5 1020.7 -9.9 -9.999 -99.9 -99.99 -9.99
2020/01/16 21:12 EST    0.03  -0.82   17    6   22  36.5  41.5 1020.8 -9.9 -9.999 -99.9 -99.99 -9.99
2020/01/16 21:18 EST   -0.04  -0.87   20    2   26  36.5  41.5 1021.0 -9.9 -9.999 -99.9 -99.99 -9.99
2020/01/16 21:24 EST   -0.09  -0.90   28    5   35  36.3  41.5 1020.9 -9.9 -9.999 -99.9 -99.99 -9.99
2020/01/16 21:30 EST   -0.14  -0.94   26   10   32  36.5  41.5 1021.1 -9.9 -9.999 -99.9 -99.99 -9.99
2020/01/16 21:36 EST   -0.18  -0.98   22    6   28  36.3  41.4 1021.2 -9.9 -9.999 -99.9 -99.99 -9.99
2020/01/16 21:42 EST   -0.21  -0.97   20   10   27  36.5  41.4 1021.4 -9.9 -9.999 -99.9 -99.99 -9.99
2020/01/16 21:48 EST   -0.24  -0.93   20    1   29  36.1  41.5 1021.4 -9.9 -9.999 -99.9 -99.99 -9.99
2020/01/16 21:54 EST   -0.26  -0.89   24   10   33  36.1  41.4 1021.6 -9.9 -9.999 -99.9 -99.99 -9.99
2020/01/16 22:00 EST   -0.28  -0.87   20    7   23  36.1  41.4 1021.7 -9.9 -9.999 -99.9 -99.99 -9.99
2020/01/16 22:06 EST   -0.29  -0.87   22    5   26  36.0  41.4 1021.7 -9.9 -9.999 -99.9 -99.99 -9.99
2020/01/16 22:12 EST   -0.30  -0.84   21    6   25  35.8  41.4 1021.8 -9.9 -9.999 -99.9 -99.99 -9.99
2020/01/16 22:18 EST   -0.31  -0.82   25    3   31  35.8  41.4 1021.9 -9.9 -9.999 -99.9 -99.99 -9.99
2020/01/16 22:24 EST   -0.31  -0.80   18    5   28  36.0  41.4 1022.1 -9.9 -9.999 -99.9 -99.99 -9.99
2020/01/16 22:30 EST   -0.31  -0.83   24    5   30  36.0  41.2 1022.3 -9.9 -9.999 -99.9 -99.99 -9.99
2020/01/16 22:36 EST   -0.30  -0.86   25    8   33  35.6  41.2 1022.2 -9.9 -9.999 -99.9 -99.99 -9.99
2020/01/16 22:42 EST   -0.29  -0.92   25   15   30  35.4  41.2 1022.3 -9.9 -9.999 -99.9 -99.99 -9.99
2020/01/16 22:48 EST   -0.27  -0.99   26    8   33  35.6  41.2 1022.4 -9.9 -9.999 -99.9 -99.99 -9.99
2020/01/16 22:54 EST   -0.25  -1.05   21   13   28  35.6  41.2 1022.5 -9.9 -9.999 -99.9 -99.99 -9.99
2020/01/16 23:00 EST   -0.22  -1.11   22   12   27  35.4  41.2 1022.7 -9.9 -9.999 -99.9 -99.99 -9.99
2020/01/16 23:06 EST   -0.19  -1.14   24   13   29  35.2  41.2 1022.7 -9.9 -9.999 -99.9 -99.99 -9.99
2020/01/16 23:12 EST   -0.15  -1.18   25   17   34  35.1  41.0 1022.8 -9.9 -9.999 -99.9 -99.99 -9.99
2020/01/16 23:18 EST   -0.10  -1.19   32   13   38  35.1  41.0 1022.9 -9.9 -9.999 -99.9 -99.99 -9.99
2020/01/16 23:24 EST   -0.03  -1.19   28   17   36  35.2  41.0 1023.0 -9.9 -9.999 -99.9 -99.99 -9.99
2020/01/16 23:30 EST    0.04  -1.16   28    6   36  34.9  41.0 1023.0 -9.9 -9.999 -99.9 -99.99 -9.99
2020/01/16 23:36 EST    0.12  -1.08   24   15   29  34.9  41.0 1023.0 -9.9 -9.999 -99.9 -99.99 -9.99
2020/01/16 23:42 EST    0.21  -0.99   27    7   34  34.5  40.8 1023.1 -9.9 -9.999 -99.9 -99.99 -9.99
2020/01/16 23:48 EST    0.32  -0.88   26   11   36  34.9  40.8 1023.1 -9.9 -9.999 -99.9 -99.99 -9.99
2020/01/16 23:54 EST    0.44  -0.76   27    8   31  34.7  40.8 1023.1 -9.9 -9.999 -99.9 -99.99 -9.99
2020/01/17 00:00 EST    0.58  -0.60   25    8   32  34.5  40.8 1023.1 -9.9 -9.999 -99.9 -99.99 -9.99
2020/01/17 00:06 EST    0.72  -0.46   24    5   28  34.5  40.8 1023.2 -9.9 -9.999 -99.9 -99.99 -9.99
2020/01/17 00:12 EST    0.89  -0.30   24   16   29  34.3  40.8 1023.3 -9.9 -9.999 -99.9 -99.99 -9.99
2020/01/17 00:18 EST    1.06  -0.10   22    6   28  34.5  40.8 1023.3 -9.9 -9.999 -99.9 -99.99 -9.99
2020/01/17 00:24 EST    1.25   0.14   25   11   29  33.8  40.8 1023.5 -9.9 -9.999 -99.9 -99.99 -9.99
2020/01/17 00:30 EST    1.46   0.39   25   23   32  33.8  40.8 1023.5 -9.9 -9.999 -99.9 -99.99 -9.99
2020/01/17 00:36 EST    1.68   0.63   26   11   33  33.8  40.8 1023.6 -9.9 -9.999 -99.9 -99.99 -9.99
2020/01/17 00:42 EST    1.90   0.88   27   23   33  33.3  40.6 1023.6 -9.9 -9.999 -99.9 -99.99 -9.99
2020/01/17 00:48 EST    2.14   1.14   26   12   35  33.3  40.6 1023.6 -9.9 -9.999 -99.9 -99.99 -9.99
2020/01/17 00:54 EST    2.39   1.42   25    6   36  33.3  40.6 1023.6 -9.9 -9.999 -99.9 -99.99 -9.99
2020/01/17 01:00 EST    2.65   1.74   25   14   30  33.1  40.6 1023.7 -9.9 -9.999 -99.9 -99.99 -9.99
2020/01/17 01:06 EST    2.92   2.06   25    9   34  33.3  40.6 1024.0 -9.9 -9.999 -99.9 -99.99 -9.99
2020/01/17 01:12 EST    3.18   2.38   27   10   34  32.5  40.6 1024.1 -9.9 -9.999 -99.9 -99.99 -9.99
2020/01/17 01:18 EST    3.46   2.69   25    2   36  32.7  40.6 1024.2 -9.9 -9.999 -99.9 -99.99 -9.99
2020/01/17 01:24 EST    3.73   2.99   25   10   34  32.5  40.5 1024.5 -9.9 -9.999 -99.9 -99.99 -9.99
2020/01/17 01:30 EST    4.00   3.32   25    8   33  32.5  40.6 1024.7 -9.9 -9.999 -99.9 -99.99 -9.99
2020/01/17 01:36 EST    4.28   3.65   26   12   34  32.2  40.5 1024.9 -9.9 -9.999 -99.9 -99.99 -9.99
2020/01/17 01:42 EST    4.54   3.94   22   13   28  32.2  40.5 1025.1 -9.9 -9.999 -99.9 -99.99 -9.99
2020/01/17 01:48 EST    4.81   4.25   24    8   29  32.0  40.3 1025.4 -9.9 -9.999 -99.9 -99.99 -9.99
2020/01/17 01:54 EST    5.06   4.51   21    8   27  32.0  40.3 1025.7 -9.9 -9.999 -99.9 -99.99 -9.99
2020/01/17 02:00 EST    5.31   4.78   20   26   25  31.6  40.5 1025.9 -9.9 -9.999 -99.9 -99.99 -9.99
2020/01/17 02:06 EST    5.54   5.01   18   17   22  32.0  40.5 1026.2 -9.9 -9.999 -99.9 -99.99 -9.99
2020/01/17 02:12 EST    5.77   5.27   18   18   31  31.6  40.5 1026.4 -9.9 -9.999 -99.9 -99.99 -9.99
2020/01/17 02:18 EST    5.98   5.52   21   24   24  31.6  40.5 1026.6 -9.9 -9.999 -99.9 -99.99 -9.99
2020/01/17 02:24 EST    6.19   5.70   19   18   25  32.0  40.5 1026.9 -9.9 -9.999 -99.9 -99.99 -9.99
2020/01/17 02:30 EST    6.37   5.90   22   24   27  31.8  40.5 1027.1 -9.9 -9.999 -99.9 -99.99 -9.99
2020/01/17 02:36 EST    6.55   6.09   20   17   29  31.3  40.5 1027.2 -9.9 -9.999 -99.9 -99.99 -9.99
2020/01/17 02:42 EST    6.71   6.25   19   18   27  31.1  40.5 1027.3 -9.9 -9.999 -99.9 -99.99 -9.99
2020/01/17 02:48 EST    6.86   6.39   24   27   32  30.6  40.5 1027.3 -9.9 -9.999 -99.9 -99.99 -9.99
2020/01/17 02:54 EST    6.99   6.48   22   20   27  30.4  40.6 1027.5 -9.9 -9.999 -99.9 -99.99 -9.99
2020/01/17 03:00 EST    7.11   6.58   21   16   31  30.7  40.5 1027.5 -9.9 -9.999 -99.9 -99.99 -9.99
2020/01/17 03:06 EST    7.22   6.63   21   17   28  30.0  40.5 1027.6 -9.9 -9.999 -99.9 -99.99 -9.99
2020/01/17 03:12 EST    7.31   6.69   24   11   30  30.0  40.5 1027.6 -9.9 -9.999 -99.9 -99.99 -9.99
2020/01/17 03:18 EST    7.39   6.71   22   11   30  30.4  40.6 1027.6 -9.9 -9.999 -99.9 -99.99 -9.99
2020/01/17 03:24 EST    7.47   6.74   22   13   30  30.2  40.5 1027.7 -9.9 -9.999 -99.9 -99.99 -9.99
2020/01/17 03:30 EST    7.53   6.75   21   20   26  29.8  40.5 1027.8 -9.9 -9.999 -99.9 -99.99 -9.99
2020/01/17 03:36 EST    7.58   6.78   24   11   28  29.8  40.5 1028.0 -9.9 -9.999 -99.9 -99.99 -9.99
2020/01/17 03:42 EST    7.62   6.82   20   10   26  30.0  40.6 1028.3 -9.9 -9.999 -99.9 -99.99 -9.99
2020/01/17 03:48 EST    7.66   6.85   23   18   33  29.3  40.6 1028.3 -9.9 -9.999 -99.9 -99.99 -9.99
2020/01/17 03:54 EST    7.68   6.88   22   14   29  29.3  40.5 1028.3 -9.9 -9.999 -99.9 -99.99 -9.99
2020/01/17 04:00 EST    7.70   6.91   21   26   27  28.9  40.5 1028.6 -9.9 -9.999 -99.9 -99.99 -9.99
2020/01/17 04:06 EST    7.71   6.97   27   17   36  28.6  40.6 1028.8 -9.9 -9.999 -99.9 -99.99 -9.99
2020/01/17 04:12 EST    7.72   6.98   24   21   32  28.4  40.6 1029.0 -9.9 -9.999 -99.9 -99.99 -9.99
2020/01/17 04:18 EST    7.72   7.00   25   19   31  28.4  40.6 1029.2 -9.9 -9.999 -99.9 -99.99 -9.99
2020/01/17 04:24 EST    7.72   7.00   27   10   34  28.4  40.6 1029.3 -9.9 -9.999 -99.9 -99.99 -9.99
2020/01/17 04:30 EST    7.71   7.00   26   17   33  28.0  40.5 1029.4 -9.9 -9.999 -99.9 -99.99 -9.99
2020/01/17 04:36 EST    7.70   6.99   24   24   33  28.0  40.5 1029.6 -9.9 -9.999 -99.9 -99.99 -9.99
2020/01/17 04:42 EST    7.68   7.00   22   24   29  28.0  40.5 1029.6 -9.9 -9.999 -99.9 -99.99 -9.99
2020/01/17 04:48 EST    7.65   6.98   22    8   29  27.9  40.5 1029.7 -9.9 -9.999 -99.9 -99.99 -9.99
2020/01/17 04:54 EST    7.62   6.96   21   26   27  27.1  40.5 1030.1 -9.9 -9.999 -99.9 -99.99 -9.99
2020/01/17 05:00 EST    7.59   6.91   20   31   29  27.1  40.3 1030.2 -9.9 -9.999 -99.9 -99.99 -9.99
2020/01/17 05:06 EST    7.55   6.89   22   29   25  26.8  40.5 1030.4 -9.9 -9.999 -99.9 -99.99 -9.99
2020/01/17 05:12 EST    7.50   6.83   23   27   27  27.0  40.3 1030.7 -9.9 -9.999 -99.9 -99.99 -9.99
2020/01/17 05:18 EST    7.45   6.76   23   10   27  27.0  40.3 1030.9 -9.9 -9.999 -99.9 -99.99 -9.99
2020/01/17 05:24 EST    7.39   6.71   23   26   29  26.4  40.3 1031.1 -9.9 -9.999 -99.9 -99.99 -9.99
2020/01/17 05:30 EST    7.32   6.65   20   26   27  26.6  40.3 1031.2 -9.9 -9.999 -99.9 -99.99 -9.99
2020/01/17 05:36 EST    7.24   6.61   24   19   31  26.2  40.3 1031.4 -9.9 -9.999 -99.9 -99.99 -9.99
2020/01/17 05:42 EST    7.16   6.55   29   21   36  26.1  40.3 1031.5 -9.9 -9.999 -99.9 -99.99 -9.99
2020/01/17 05:48 EST    7.07   6.49   25   24   31  26.4  40.3 1031.6 -9.9 -9.999 -99.9 -99.99 -9.99
2020/01/17 05:54 EST    6.97   6.40   24   17   29  25.7  40.3 1031.8 -9.9 -9.999 -99.9 -99.99 -9.99
2020/01/17 06:00 EST    6.86   6.31   22   14   28  26.1  40.3 1032.2 -9.9 -9.999 -99.9 -99.99 -9.99
2020/01/17 06:06 EST    6.74   6.18   21   12   28  25.9  40.3 1032.4 -9.9 -9.999 -99.9 -99.99 -9.99
2020/01/17 06:12 EST    6.61   6.02   26    6   34  25.0  40.1 1032.6 -9.9 -9.999 -99.9 -99.99 -9.99
2020/01/17 06:18 EST    6.47   5.87   27   10   31  25.0  40.1 1032.8 -9.9 -9.999 -99.9 -99.99 -9.99
2020/01/17 06:24 EST    6.32   5.73   25   13   34  25.0  40.1 1033.0 -9.9 -9.999 -99.9 -99.99 -9.99
2020/01/17 06:30 EST    6.16   5.57   25    7   31  25.3  39.9 1033.2 -9.9 -9.999 -99.9 -99.99 -9.99
2020/01/17 06:36 EST    6.00   5.41   26   11   33  24.8  39.9 1033.3 -9.9 -9.999 -99.9 -99.99 -9.99
2020/01/17 06:42 EST    5.82   5.23   24    8   31  24.8  39.9 1033.4 -9.9 -9.999 -99.9 -99.99 -9.99
2020/01/17 06:48 EST    5.64   5.05   24   17   30  24.3  39.9 1033.6 -9.9 -9.999 -99.9 -99.99 -9.99
2020/01/17 06:54 EST    5.45   4.86   23   10   29  24.3  39.9 1033.8 -9.9 -9.999 -99.9 -99.99 -9.99
2020/01/17 07:00 EST    5.25   4.69   20   18   27  23.9  39.9 1033.8 -9.9 -9.999 -99.9 -99.99 -9.99
2020/01/17 07:06 EST    5.05   4.48   23   13   29  23.9  39.9 1033.9 -9.9 -9.999 -99.9 -99.99 -9.99
2020/01/17 07:12 EST    4.84   4.28   26   22   32  23.9  39.9 1034.0 -9.9 -9.999 -99.9 -99.99 -9.99
2020/01/17 07:18 EST    4.63   4.08   21   24   31  23.9  39.7 1034.4 -9.9 -9.999 -99.9 -99.99 -9.99
2020/01/17 07:24 EST    4.41   3.85   21   24   26  23.5  39.7 1034.7 -9.9 -9.999 -99.9 -99.99 -9.99
2020/01/17 07:30 EST    4.19   3.64   23   19   28  23.5  39.6 1034.7 -9.9 -9.999 -99.9 -99.99 -9.99
2020/01/17 07:36 EST    3.96   3.44   20   15   28  23.5  39.6 1034.8 -9.9 -9.999 -99.9 -99.99 -9.99
2020/01/17 07:42 EST    3.74   3.22   24   24   29  23.9  39.6 1035.0 -9.9 -9.999 -99.9 -99.99 -9.99
2020/01/17 07:48 EST    3.52   3.02   23   15   31  23.5  39.7 1035.1 -9.9 -9.999 -99.9 -99.99 -9.99
2020/01/17 07:54 EST    3.30   2.82   24   18   30  23.2  39.7 1035.4 -9.9 -9.999 -99.9 -99.99 -9.99
2020/01/17 08:00 EST    3.08   2.63   30   18   33  22.5  39.6 1035.5 -9.9 -9.999 -99.9 -99.99 -9.99
2020/01/17 08:06 EST    2.86   2.42   25   22   32  23.4  39.6 1035.7 -9.9 -9.999 -99.9 -99.99 -9.99
2020/01/17 08:12 EST    2.65   2.24   24   20   32  23.0  39.6 1035.7 -9.9 -9.999 -99.9 -99.99 -9.99
2020/01/17 08:18 EST    2.45   2.08   24   17   32  22.3  39.6 1035.9 -9.9 -9.999 -99.9 -99.99 -9.99
2020/01/17 08:24 EST    2.25   1.92   22   17   30  22.1  39.6 1036.3 -9.9 -9.999 -99.9 -99.99 -9.99
2020/01/17 08:30 EST    2.06   1.73   22   12   28  22.6  39.4 1036.5 -9.9 -9.999 -99.9 -99.99 -9.99
2020/01/17 08:36 EST    1.87   1.56   22   24   30  22.6  39.4 1036.7 -9.9 -9.999 -99.9 -99.99 -9.99
2020/01/17 08:42 EST    1.70   1.39   21   16   29  22.5  39.4 1036.9 -9.9 -9.999 -99.9 -99.99 -9.99
2020/01/17 08:48 EST    1.53   1.23   24   15   29  21.4  39.2 1036.9 -9.9 -9.999 -99.9 -99.99 -9.99
2020/01/17 08:54 EST    1.38   1.08   21   25   26  22.1  39.2 1037.1 -9.9 -9.999 -99.9 -99.99 -9.99
2020/01/17 09:00 EST    1.23   0.96   21    7   25  22.1  39.4 1036.9 -9.9 -9.999 -99.9 -99.99 -9.99
2020/01/17 09:06 EST    1.10   0.86   26   10   30  21.9  39.4 1037.1 -9.9 -9.999 -99.9 -99.99 -9.99
2020/01/17 09:12 EST    0.97   0.76   21   15   26  21.9  39.2 1037.2 -9.9 -9.999 -99.9 -99.99 -9.99
2020/01/17 09:18 EST    0.85   0.67   21    9   28  22.5  39.2 1037.0 -9.9 -9.999 -99.9 -99.99 -9.99
2020/01/17 09:24 EST    0.75   0.55   24   14   31  22.5  39.4 1037.4 -9.9 -9.999 -99.9 -99.99 -9.99
2020/01/17 09:30 EST    0.65   0.48   21   15   27  22.5  39.2 1037.6 -9.9 -9.999 -99.9 -99.99 -9.99
2020/01/17 09:36 EST    0.56   0.42   23    9   27  22.3  39.2 1037.5 -9.9 -9.999 -99.9 -99.99 -9.99
2020/01/17 09:42 EST    0.48   0.36   22    7   26  22.1  39.4 1037.7 -9.9 -9.999 -99.9 -99.99 -9.99
2020/01/17 09:48 EST    0.41   0.35   23    3   28  22.6  39.2 1037.7 -9.9 -9.999 -99.9 -99.99 -9.99
2020/01/17 09:54 EST    0.34   0.33   24    6   30  22.6  39.2 1037.8 -9.9 -9.999 -99.9 -99.99 -9.99
2020/01/17 10:00 EST    0.28   0.28   22   15   31  22.8  39.2 1037.7 -9.9 -9.999 -99.9 -99.99 -9.99
2020/01/17 10:06 EST    0.23   0.29   20    9   30  22.6  39.2 1037.7 -9.9 -9.999 -99.9 -99.99 -9.99
2020/01/17 10:12 EST    0.18   0.29   20   12   24  23.4  39.2 1037.9 -9.9 -9.999 -99.9 -99.99 -9.99
2020/01/17 10:18 EST    0.14   0.32   21   18   29  22.6  39.2 1037.8 -9.9 -9.999 -99.9 -99.99 -9.99
2020/01/17 10:24 EST    0.10   0.34   25   15   28  23.2  39.2 1037.8 -9.9 -9.999 -99.9 -99.99 -9.99
2020/01/17 10:30 EST    0.06   0.34   24   11   29  23.0  39.2 1037.9 -9.9 -9.999 -99.9 -99.99 -9.99
2020/01/17 10:36 EST    0.03 -99.99 -999 -999 -999 -99.9 -99.9 -999.9 -9.9 -9.999 -99.9 -99.99 -9.99